<?xml version="1.0" encoding="UTF-8" standalone="no" ?>
<gpx xmlns="http://www.topografix.com/GPX/1/1" xmlns:xsi="http://www.w3.org/2001/XMLSchema-instance" xsi:schemaLocation="http://www.topografix.com/GPX/1/1 http://www.topografix.com/GPX/1/1/gpx.xsd" version="1.1" creator="VisuGPX - https://www.visugpx.com">
  <metadata>
    <name>Lyon entre saône et fourvière</name>
    <desc><![CDATA[10 avril 2015 - petite boucle avec un peu de dénivelé - 10 kms saône et Fourvière]]></desc>
  </metadata>
  <trk>
    <name><![CDATA[Huir]]></name>
    <trkseg>
      <trkpt lat="45.74667" lon="4.8189">
        <ele>179</ele>
        <time>2015-04-10T11:21:07Z</time>
      </trkpt>
      <trkpt lat="45.74671" lon="4.81882">
        <ele>189</ele>
        <time>2015-04-10T11:21:25Z</time>
      </trkpt>
      <trkpt lat="45.74677" lon="4.8188">
        <ele>188</ele>
        <time>2015-04-10T11:21:30Z</time>
      </trkpt>
      <trkpt lat="45.74682" lon="4.81882">
        <ele>189</ele>
        <time>2015-04-10T11:21:37Z</time>
      </trkpt>
      <trkpt lat="45.74684" lon="4.8189">
        <ele>190</ele>
        <time>2015-04-10T11:21:43Z</time>
      </trkpt>
      <trkpt lat="45.7469" lon="4.81896">
        <ele>190</ele>
        <time>2015-04-10T11:21:46Z</time>
      </trkpt>
      <trkpt lat="45.747" lon="4.81898">
        <ele>191</ele>
        <time>2015-04-10T11:21:50Z</time>
      </trkpt>
      <trkpt lat="45.74705" lon="4.81898">
        <ele>191</ele>
        <time>2015-04-10T11:21:52Z</time>
      </trkpt>
      <trkpt lat="45.74712" lon="4.81899">
        <ele>191</ele>
        <time>2015-04-10T11:21:55Z</time>
      </trkpt>
      <trkpt lat="45.74711" lon="4.81912">
        <ele>191</ele>
        <time>2015-04-10T11:21:57Z</time>
      </trkpt>
      <trkpt lat="45.74709" lon="4.81926">
        <ele>191</ele>
        <time>2015-04-10T11:21:59Z</time>
      </trkpt>
      <trkpt lat="45.74706" lon="4.81937">
        <ele>191</ele>
        <time>2015-04-10T11:22:01Z</time>
      </trkpt>
      <trkpt lat="45.74703" lon="4.81949">
        <ele>192</ele>
        <time>2015-04-10T11:22:03Z</time>
      </trkpt>
      <trkpt lat="45.74707" lon="4.81958">
        <ele>192</ele>
        <time>2015-04-10T11:22:07Z</time>
      </trkpt>
      <trkpt lat="45.74712" lon="4.81965">
        <ele>192</ele>
        <time>2015-04-10T11:22:11Z</time>
      </trkpt>
      <trkpt lat="45.7472" lon="4.81958">
        <ele>191</ele>
        <time>2015-04-10T11:22:20Z</time>
      </trkpt>
      <trkpt lat="45.74724" lon="4.81951">
        <ele>191</ele>
        <time>2015-04-10T11:22:22Z</time>
      </trkpt>
      <trkpt lat="45.74727" lon="4.81945">
        <ele>191</ele>
        <time>2015-04-10T11:22:24Z</time>
      </trkpt>
      <trkpt lat="45.74733" lon="4.81937">
        <ele>190</ele>
        <time>2015-04-10T11:22:27Z</time>
      </trkpt>
      <trkpt lat="45.74738" lon="4.81929">
        <ele>190</ele>
        <time>2015-04-10T11:22:29Z</time>
      </trkpt>
      <trkpt lat="45.74742" lon="4.81924">
        <ele>190</ele>
        <time>2015-04-10T11:22:31Z</time>
      </trkpt>
      <trkpt lat="45.74745" lon="4.81918">
        <ele>189</ele>
        <time>2015-04-10T11:22:33Z</time>
      </trkpt>
      <trkpt lat="45.74752" lon="4.81914">
        <ele>189</ele>
        <time>2015-04-10T11:22:35Z</time>
      </trkpt>
      <trkpt lat="45.74756" lon="4.81909">
        <ele>189</ele>
        <time>2015-04-10T11:22:37Z</time>
      </trkpt>
      <trkpt lat="45.74759" lon="4.81904">
        <ele>189</ele>
        <time>2015-04-10T11:22:39Z</time>
      </trkpt>
      <trkpt lat="45.74765" lon="4.81899">
        <ele>188</ele>
        <time>2015-04-10T11:22:41Z</time>
      </trkpt>
      <trkpt lat="45.74768" lon="4.81893">
        <ele>188</ele>
        <time>2015-04-10T11:22:43Z</time>
      </trkpt>
      <trkpt lat="45.7477" lon="4.81882">
        <ele>188</ele>
        <time>2015-04-10T11:22:46Z</time>
      </trkpt>
      <trkpt lat="45.74772" lon="4.81876">
        <ele>188</ele>
        <time>2015-04-10T11:22:48Z</time>
      </trkpt>
      <trkpt lat="45.74776" lon="4.81868">
        <ele>188</ele>
        <time>2015-04-10T11:22:52Z</time>
      </trkpt>
      <trkpt lat="45.7478" lon="4.81861">
        <ele>187</ele>
        <time>2015-04-10T11:22:56Z</time>
      </trkpt>
      <trkpt lat="45.74784" lon="4.81858">
        <ele>187</ele>
        <time>2015-04-10T11:22:59Z</time>
      </trkpt>
      <trkpt lat="45.74794" lon="4.81853">
        <ele>187</ele>
        <time>2015-04-10T11:23:03Z</time>
      </trkpt>
      <trkpt lat="45.74798" lon="4.81852">
        <ele>187</ele>
        <time>2015-04-10T11:23:05Z</time>
      </trkpt>
      <trkpt lat="45.74802" lon="4.81859">
        <ele>185</ele>
        <time>2015-04-10T11:23:09Z</time>
      </trkpt>
      <trkpt lat="45.74806" lon="4.81864">
        <ele>183</ele>
        <time>2015-04-10T11:23:11Z</time>
      </trkpt>
      <trkpt lat="45.74813" lon="4.81868">
        <ele>180</ele>
        <time>2015-04-10T11:23:13Z</time>
      </trkpt>
      <trkpt lat="45.7482" lon="4.81876">
        <ele>178</ele>
        <time>2015-04-10T11:23:16Z</time>
      </trkpt>
      <trkpt lat="45.74823" lon="4.81881">
        <ele>176</ele>
        <time>2015-04-10T11:23:18Z</time>
      </trkpt>
      <trkpt lat="45.74826" lon="4.81886">
        <ele>174</ele>
        <time>2015-04-10T11:23:20Z</time>
      </trkpt>
      <trkpt lat="45.74831" lon="4.81892">
        <ele>173</ele>
        <time>2015-04-10T11:23:22Z</time>
      </trkpt>
      <trkpt lat="45.74836" lon="4.81899">
        <ele>172</ele>
        <time>2015-04-10T11:23:24Z</time>
      </trkpt>
      <trkpt lat="45.74839" lon="4.81905">
        <ele>171</ele>
        <time>2015-04-10T11:23:26Z</time>
      </trkpt>
      <trkpt lat="45.74845" lon="4.81914">
        <ele>170</ele>
        <time>2015-04-10T11:23:29Z</time>
      </trkpt>
      <trkpt lat="45.74854" lon="4.81923">
        <ele>168</ele>
        <time>2015-04-10T11:23:33Z</time>
      </trkpt>
      <trkpt lat="45.74859" lon="4.81928">
        <ele>167</ele>
        <time>2015-04-10T11:23:35Z</time>
      </trkpt>
      <trkpt lat="45.74863" lon="4.81933">
        <ele>166</ele>
        <time>2015-04-10T11:23:37Z</time>
      </trkpt>
      <trkpt lat="45.74866" lon="4.81939">
        <ele>165</ele>
        <time>2015-04-10T11:23:39Z</time>
      </trkpt>
      <trkpt lat="45.74869" lon="4.81944">
        <ele>164</ele>
        <time>2015-04-10T11:23:41Z</time>
      </trkpt>
      <trkpt lat="45.74872" lon="4.8195">
        <ele>163</ele>
        <time>2015-04-10T11:23:43Z</time>
      </trkpt>
      <trkpt lat="45.74881" lon="4.81958">
        <ele>162</ele>
        <time>2015-04-10T11:23:46Z</time>
      </trkpt>
      <trkpt lat="45.74887" lon="4.81962">
        <ele>161</ele>
        <time>2015-04-10T11:23:48Z</time>
      </trkpt>
      <trkpt lat="45.74889" lon="4.81969">
        <ele>160</ele>
        <time>2015-04-10T11:23:50Z</time>
      </trkpt>
      <trkpt lat="45.74891" lon="4.81975">
        <ele>159</ele>
        <time>2015-04-10T11:23:52Z</time>
      </trkpt>
      <trkpt lat="45.74893" lon="4.81981">
        <ele>159</ele>
        <time>2015-04-10T11:23:54Z</time>
      </trkpt>
      <trkpt lat="45.74897" lon="4.81989">
        <ele>158</ele>
        <time>2015-04-10T11:23:57Z</time>
      </trkpt>
      <trkpt lat="45.74901" lon="4.81995">
        <ele>157</ele>
        <time>2015-04-10T11:23:59Z</time>
      </trkpt>
      <trkpt lat="45.74904" lon="4.82">
        <ele>157</ele>
        <time>2015-04-10T11:24:01Z</time>
      </trkpt>
      <trkpt lat="45.74907" lon="4.82006">
        <ele>156</ele>
        <time>2015-04-10T11:24:03Z</time>
      </trkpt>
      <trkpt lat="45.7491" lon="4.82011">
        <ele>156</ele>
        <time>2015-04-10T11:24:05Z</time>
      </trkpt>
      <trkpt lat="45.74914" lon="4.82017">
        <ele>156</ele>
        <time>2015-04-10T11:24:07Z</time>
      </trkpt>
      <trkpt lat="45.7492" lon="4.82024">
        <ele>155</ele>
        <time>2015-04-10T11:24:09Z</time>
      </trkpt>
      <trkpt lat="45.74928" lon="4.82029">
        <ele>155</ele>
        <time>2015-04-10T11:24:11Z</time>
      </trkpt>
      <trkpt lat="45.74933" lon="4.82036">
        <ele>155</ele>
        <time>2015-04-10T11:24:13Z</time>
      </trkpt>
      <trkpt lat="45.74942" lon="4.82044">
        <ele>155</ele>
        <time>2015-04-10T11:24:16Z</time>
      </trkpt>
      <trkpt lat="45.74947" lon="4.8205">
        <ele>155</ele>
        <time>2015-04-10T11:24:18Z</time>
      </trkpt>
      <trkpt lat="45.74952" lon="4.82055">
        <ele>154</ele>
        <time>2015-04-10T11:24:20Z</time>
      </trkpt>
      <trkpt lat="45.74957" lon="4.8206">
        <ele>154</ele>
        <time>2015-04-10T11:24:22Z</time>
      </trkpt>
      <trkpt lat="45.74959" lon="4.82069">
        <ele>154</ele>
        <time>2015-04-10T11:24:24Z</time>
      </trkpt>
      <trkpt lat="45.74962" lon="4.82076">
        <ele>153</ele>
        <time>2015-04-10T11:24:26Z</time>
      </trkpt>
      <trkpt lat="45.74968" lon="4.82087">
        <ele>152</ele>
        <time>2015-04-10T11:24:29Z</time>
      </trkpt>
      <trkpt lat="45.74971" lon="4.82095">
        <ele>152</ele>
        <time>2015-04-10T11:24:31Z</time>
      </trkpt>
      <trkpt lat="45.74974" lon="4.821">
        <ele>152</ele>
        <time>2015-04-10T11:24:33Z</time>
      </trkpt>
      <trkpt lat="45.74975" lon="4.82108">
        <ele>152</ele>
        <time>2015-04-10T11:24:35Z</time>
      </trkpt>
      <trkpt lat="45.74978" lon="4.82115">
        <ele>151</ele>
        <time>2015-04-10T11:24:37Z</time>
      </trkpt>
      <trkpt lat="45.74982" lon="4.8212">
        <ele>151</ele>
        <time>2015-04-10T11:24:39Z</time>
      </trkpt>
      <trkpt lat="45.74987" lon="4.82125">
        <ele>151</ele>
        <time>2015-04-10T11:24:41Z</time>
      </trkpt>
      <trkpt lat="45.74993" lon="4.82133">
        <ele>151</ele>
        <time>2015-04-10T11:24:43Z</time>
      </trkpt>
      <trkpt lat="45.75001" lon="4.8214">
        <ele>151</ele>
        <time>2015-04-10T11:24:46Z</time>
      </trkpt>
      <trkpt lat="45.75006" lon="4.82147">
        <ele>151</ele>
        <time>2015-04-10T11:24:48Z</time>
      </trkpt>
      <trkpt lat="45.7501" lon="4.82152">
        <ele>151</ele>
        <time>2015-04-10T11:24:50Z</time>
      </trkpt>
      <trkpt lat="45.75011" lon="4.82163">
        <ele>150</ele>
        <time>2015-04-10T11:24:54Z</time>
      </trkpt>
      <trkpt lat="45.75013" lon="4.82174">
        <ele>150</ele>
        <time>2015-04-10T11:24:59Z</time>
      </trkpt>
      <trkpt lat="45.75016" lon="4.82182">
        <ele>150</ele>
        <time>2015-04-10T11:25:01Z</time>
      </trkpt>
      <trkpt lat="45.75018" lon="4.8219">
        <ele>150</ele>
        <time>2015-04-10T11:25:03Z</time>
      </trkpt>
      <trkpt lat="45.75019" lon="4.82196">
        <ele>149</ele>
        <time>2015-04-10T11:25:05Z</time>
      </trkpt>
      <trkpt lat="45.75023" lon="4.82204">
        <ele>149</ele>
        <time>2015-04-10T11:25:07Z</time>
      </trkpt>
      <trkpt lat="45.75028" lon="4.82211">
        <ele>149</ele>
        <time>2015-04-10T11:25:09Z</time>
      </trkpt>
      <trkpt lat="45.75033" lon="4.82218">
        <ele>148</ele>
        <time>2015-04-10T11:25:11Z</time>
      </trkpt>
      <trkpt lat="45.75037" lon="4.82225">
        <ele>148</ele>
        <time>2015-04-10T11:25:13Z</time>
      </trkpt>
      <trkpt lat="45.75042" lon="4.82233">
        <ele>148</ele>
        <time>2015-04-10T11:25:16Z</time>
      </trkpt>
      <trkpt lat="45.75049" lon="4.82239">
        <ele>148</ele>
        <time>2015-04-10T11:25:18Z</time>
      </trkpt>
      <trkpt lat="45.75055" lon="4.8225">
        <ele>147</ele>
        <time>2015-04-10T11:25:22Z</time>
      </trkpt>
      <trkpt lat="45.75056" lon="4.82261">
        <ele>147</ele>
        <time>2015-04-10T11:25:26Z</time>
      </trkpt>
      <trkpt lat="45.75062" lon="4.82276">
        <ele>147</ele>
        <time>2015-04-10T11:25:29Z</time>
      </trkpt>
      <trkpt lat="45.75069" lon="4.82282">
        <ele>147</ele>
        <time>2015-04-10T11:25:31Z</time>
      </trkpt>
      <trkpt lat="45.75075" lon="4.82288">
        <ele>146</ele>
        <time>2015-04-10T11:25:33Z</time>
      </trkpt>
      <trkpt lat="45.75081" lon="4.82298">
        <ele>146</ele>
        <time>2015-04-10T11:25:37Z</time>
      </trkpt>
      <trkpt lat="45.75089" lon="4.8231">
        <ele>145</ele>
        <time>2015-04-10T11:25:41Z</time>
      </trkpt>
      <trkpt lat="45.75096" lon="4.82317">
        <ele>145</ele>
        <time>2015-04-10T11:25:43Z</time>
      </trkpt>
      <trkpt lat="45.75099" lon="4.82322">
        <ele>145</ele>
        <time>2015-04-10T11:25:44Z</time>
      </trkpt>
      <trkpt lat="45.75107" lon="4.82327">
        <ele>145</ele>
        <time>2015-04-10T11:25:46Z</time>
      </trkpt>
      <trkpt lat="45.75113" lon="4.82332">
        <ele>144</ele>
        <time>2015-04-10T11:25:48Z</time>
      </trkpt>
      <trkpt lat="45.75119" lon="4.82333">
        <ele>144</ele>
        <time>2015-04-10T11:25:50Z</time>
      </trkpt>
      <trkpt lat="45.75127" lon="4.82332">
        <ele>144</ele>
        <time>2015-04-10T11:25:52Z</time>
      </trkpt>
      <trkpt lat="45.75142" lon="4.82328">
        <ele>144</ele>
        <time>2015-04-10T11:25:54Z</time>
      </trkpt>
      <trkpt lat="45.75147" lon="4.82326">
        <ele>144</ele>
        <time>2015-04-10T11:25:55Z</time>
      </trkpt>
      <trkpt lat="45.75153" lon="4.82327">
        <ele>144</ele>
        <time>2015-04-10T11:25:57Z</time>
      </trkpt>
      <trkpt lat="45.75158" lon="4.82331">
        <ele>144</ele>
        <time>2015-04-10T11:26:01Z</time>
      </trkpt>
      <trkpt lat="45.75164" lon="4.82337">
        <ele>143</ele>
        <time>2015-04-10T11:26:07Z</time>
      </trkpt>
      <trkpt lat="45.75168" lon="4.82341">
        <ele>143</ele>
        <time>2015-04-10T11:26:09Z</time>
      </trkpt>
      <trkpt lat="45.75171" lon="4.82347">
        <ele>143</ele>
        <time>2015-04-10T11:26:11Z</time>
      </trkpt>
      <trkpt lat="45.75174" lon="4.82352">
        <ele>143</ele>
        <time>2015-04-10T11:26:13Z</time>
      </trkpt>
      <trkpt lat="45.75182" lon="4.82361">
        <ele>142</ele>
        <time>2015-04-10T11:26:16Z</time>
      </trkpt>
      <trkpt lat="45.75186" lon="4.82367">
        <ele>142</ele>
        <time>2015-04-10T11:26:18Z</time>
      </trkpt>
      <trkpt lat="45.75191" lon="4.82371">
        <ele>142</ele>
        <time>2015-04-10T11:26:20Z</time>
      </trkpt>
      <trkpt lat="45.75196" lon="4.82376">
        <ele>142</ele>
        <time>2015-04-10T11:26:22Z</time>
      </trkpt>
      <trkpt lat="45.75202" lon="4.8238">
        <ele>142</ele>
        <time>2015-04-10T11:26:24Z</time>
      </trkpt>
      <trkpt lat="45.75211" lon="4.82387">
        <ele>141</ele>
        <time>2015-04-10T11:26:27Z</time>
      </trkpt>
      <trkpt lat="45.75217" lon="4.82391">
        <ele>141</ele>
        <time>2015-04-10T11:26:29Z</time>
      </trkpt>
      <trkpt lat="45.75223" lon="4.82395">
        <ele>141</ele>
        <time>2015-04-10T11:26:31Z</time>
      </trkpt>
      <trkpt lat="45.7523" lon="4.824">
        <ele>141</ele>
        <time>2015-04-10T11:26:33Z</time>
      </trkpt>
      <trkpt lat="45.75236" lon="4.82405">
        <ele>141</ele>
        <time>2015-04-10T11:26:35Z</time>
      </trkpt>
      <trkpt lat="45.7524" lon="4.8241">
        <ele>141</ele>
        <time>2015-04-10T11:26:37Z</time>
      </trkpt>
      <trkpt lat="45.75245" lon="4.82416">
        <ele>140</ele>
        <time>2015-04-10T11:26:39Z</time>
      </trkpt>
      <trkpt lat="45.75249" lon="4.8242">
        <ele>140</ele>
        <time>2015-04-10T11:26:41Z</time>
      </trkpt>
      <trkpt lat="45.75253" lon="4.82426">
        <ele>140</ele>
        <time>2015-04-10T11:26:43Z</time>
      </trkpt>
      <trkpt lat="45.75261" lon="4.82434">
        <ele>140</ele>
        <time>2015-04-10T11:26:46Z</time>
      </trkpt>
      <trkpt lat="45.75266" lon="4.82439">
        <ele>139</ele>
        <time>2015-04-10T11:26:48Z</time>
      </trkpt>
      <trkpt lat="45.75274" lon="4.82444">
        <ele>139</ele>
        <time>2015-04-10T11:26:50Z</time>
      </trkpt>
      <trkpt lat="45.75281" lon="4.82448">
        <ele>139</ele>
        <time>2015-04-10T11:26:52Z</time>
      </trkpt>
      <trkpt lat="45.75288" lon="4.82452">
        <ele>139</ele>
        <time>2015-04-10T11:26:55Z</time>
      </trkpt>
      <trkpt lat="45.75295" lon="4.82456">
        <ele>140</ele>
        <time>2015-04-10T11:26:57Z</time>
      </trkpt>
      <trkpt lat="45.75302" lon="4.8246">
        <ele>140</ele>
        <time>2015-04-10T11:26:59Z</time>
      </trkpt>
      <trkpt lat="45.75307" lon="4.82464">
        <ele>140</ele>
        <time>2015-04-10T11:27:01Z</time>
      </trkpt>
      <trkpt lat="45.75311" lon="4.82468">
        <ele>140</ele>
        <time>2015-04-10T11:27:03Z</time>
      </trkpt>
      <trkpt lat="45.75316" lon="4.82472">
        <ele>139</ele>
        <time>2015-04-10T11:27:05Z</time>
      </trkpt>
      <trkpt lat="45.75322" lon="4.82474">
        <ele>139</ele>
        <time>2015-04-10T11:27:07Z</time>
      </trkpt>
      <trkpt lat="45.75329" lon="4.82478">
        <ele>139</ele>
        <time>2015-04-10T11:27:09Z</time>
      </trkpt>
      <trkpt lat="45.75335" lon="4.82481">
        <ele>139</ele>
        <time>2015-04-10T11:27:11Z</time>
      </trkpt>
      <trkpt lat="45.7534" lon="4.82483">
        <ele>138</ele>
        <time>2015-04-10T11:27:13Z</time>
      </trkpt>
      <trkpt lat="45.75347" lon="4.82488">
        <ele>138</ele>
        <time>2015-04-10T11:27:15Z</time>
      </trkpt>
      <trkpt lat="45.75356" lon="4.82491">
        <ele>138</ele>
        <time>2015-04-10T11:27:18Z</time>
      </trkpt>
      <trkpt lat="45.75365" lon="4.82494">
        <ele>138</ele>
        <time>2015-04-10T11:27:20Z</time>
      </trkpt>
      <trkpt lat="45.7537" lon="4.82497">
        <ele>138</ele>
        <time>2015-04-10T11:27:22Z</time>
      </trkpt>
      <trkpt lat="45.75373" lon="4.82503">
        <ele>138</ele>
        <time>2015-04-10T11:27:24Z</time>
      </trkpt>
      <trkpt lat="45.75378" lon="4.82509">
        <ele>138</ele>
        <time>2015-04-10T11:27:27Z</time>
      </trkpt>
      <trkpt lat="45.75385" lon="4.82513">
        <ele>138</ele>
        <time>2015-04-10T11:27:31Z</time>
      </trkpt>
      <trkpt lat="45.75391" lon="4.8252">
        <ele>138</ele>
        <time>2015-04-10T11:27:35Z</time>
      </trkpt>
      <trkpt lat="45.75397" lon="4.82523">
        <ele>138</ele>
        <time>2015-04-10T11:27:37Z</time>
      </trkpt>
      <trkpt lat="45.75403" lon="4.82528">
        <ele>138</ele>
        <time>2015-04-10T11:27:39Z</time>
      </trkpt>
      <trkpt lat="45.75409" lon="4.82532">
        <ele>138</ele>
        <time>2015-04-10T11:27:41Z</time>
      </trkpt>
      <trkpt lat="45.75415" lon="4.82536">
        <ele>138</ele>
        <time>2015-04-10T11:27:43Z</time>
      </trkpt>
      <trkpt lat="45.75421" lon="4.82541">
        <ele>138</ele>
        <time>2015-04-10T11:27:45Z</time>
      </trkpt>
      <trkpt lat="45.75427" lon="4.82546">
        <ele>138</ele>
        <time>2015-04-10T11:27:48Z</time>
      </trkpt>
      <trkpt lat="45.75436" lon="4.82549">
        <ele>138</ele>
        <time>2015-04-10T11:27:52Z</time>
      </trkpt>
      <trkpt lat="45.75443" lon="4.82549">
        <ele>138</ele>
        <time>2015-04-10T11:27:54Z</time>
      </trkpt>
      <trkpt lat="45.75453" lon="4.82552">
        <ele>138</ele>
        <time>2015-04-10T11:27:56Z</time>
      </trkpt>
      <trkpt lat="45.75459" lon="4.82553">
        <ele>138</ele>
        <time>2015-04-10T11:27:57Z</time>
      </trkpt>
      <trkpt lat="45.75468" lon="4.82554">
        <ele>138</ele>
        <time>2015-04-10T11:27:59Z</time>
      </trkpt>
      <trkpt lat="45.75477" lon="4.82556">
        <ele>139</ele>
        <time>2015-04-10T11:28:01Z</time>
      </trkpt>
      <trkpt lat="45.75483" lon="4.82559">
        <ele>139</ele>
        <time>2015-04-10T11:28:03Z</time>
      </trkpt>
      <trkpt lat="45.75488" lon="4.82564">
        <ele>139</ele>
        <time>2015-04-10T11:28:07Z</time>
      </trkpt>
      <trkpt lat="45.75495" lon="4.82569">
        <ele>140</ele>
        <time>2015-04-10T11:28:15Z</time>
      </trkpt>
      <trkpt lat="45.75501" lon="4.8257">
        <ele>140</ele>
        <time>2015-04-10T11:28:18Z</time>
      </trkpt>
      <trkpt lat="45.75506" lon="4.82574">
        <ele>140</ele>
        <time>2015-04-10T11:28:20Z</time>
      </trkpt>
      <trkpt lat="45.75512" lon="4.82576">
        <ele>140</ele>
        <time>2015-04-10T11:28:22Z</time>
      </trkpt>
      <trkpt lat="45.75517" lon="4.82578">
        <ele>141</ele>
        <time>2015-04-10T11:28:24Z</time>
      </trkpt>
      <trkpt lat="45.75522" lon="4.82581">
        <ele>141</ele>
        <time>2015-04-10T11:28:26Z</time>
      </trkpt>
      <trkpt lat="45.7553" lon="4.82586">
        <ele>141</ele>
        <time>2015-04-10T11:28:29Z</time>
      </trkpt>
      <trkpt lat="45.75535" lon="4.82589">
        <ele>141</ele>
        <time>2015-04-10T11:28:31Z</time>
      </trkpt>
      <trkpt lat="45.7554" lon="4.82591">
        <ele>142</ele>
        <time>2015-04-10T11:28:33Z</time>
      </trkpt>
      <trkpt lat="45.75545" lon="4.82593">
        <ele>142</ele>
        <time>2015-04-10T11:28:35Z</time>
      </trkpt>
      <trkpt lat="45.75549" lon="4.82595">
        <ele>142</ele>
        <time>2015-04-10T11:28:37Z</time>
      </trkpt>
      <trkpt lat="45.75555" lon="4.826">
        <ele>143</ele>
        <time>2015-04-10T11:28:41Z</time>
      </trkpt>
      <trkpt lat="45.75561" lon="4.82607">
        <ele>143</ele>
        <time>2015-04-10T11:28:45Z</time>
      </trkpt>
      <trkpt lat="45.75565" lon="4.82613">
        <ele>143</ele>
        <time>2015-04-10T11:28:48Z</time>
      </trkpt>
      <trkpt lat="45.75571" lon="4.82612">
        <ele>143</ele>
        <time>2015-04-10T11:28:50Z</time>
      </trkpt>
      <trkpt lat="45.75576" lon="4.82614">
        <ele>143</ele>
        <time>2015-04-10T11:28:52Z</time>
      </trkpt>
      <trkpt lat="45.75583" lon="4.82619">
        <ele>143</ele>
        <time>2015-04-10T11:28:54Z</time>
      </trkpt>
      <trkpt lat="45.75596" lon="4.82629">
        <ele>143</ele>
        <time>2015-04-10T11:28:56Z</time>
      </trkpt>
      <trkpt lat="45.75601" lon="4.82631">
        <ele>144</ele>
        <time>2015-04-10T11:28:57Z</time>
      </trkpt>
      <trkpt lat="45.75613" lon="4.82637">
        <ele>144</ele>
        <time>2015-04-10T11:28:59Z</time>
      </trkpt>
      <trkpt lat="45.75624" lon="4.82642">
        <ele>144</ele>
        <time>2015-04-10T11:29:01Z</time>
      </trkpt>
      <trkpt lat="45.7563" lon="4.82646">
        <ele>144</ele>
        <time>2015-04-10T11:29:03Z</time>
      </trkpt>
      <trkpt lat="45.75634" lon="4.82651">
        <ele>144</ele>
        <time>2015-04-10T11:29:05Z</time>
      </trkpt>
      <trkpt lat="45.75642" lon="4.82657">
        <ele>145</ele>
        <time>2015-04-10T11:29:07Z</time>
      </trkpt>
      <trkpt lat="45.75647" lon="4.82663">
        <ele>145</ele>
        <time>2015-04-10T11:29:09Z</time>
      </trkpt>
      <trkpt lat="45.75655" lon="4.82668">
        <ele>145</ele>
        <time>2015-04-10T11:29:11Z</time>
      </trkpt>
      <trkpt lat="45.75661" lon="4.82674">
        <ele>145</ele>
        <time>2015-04-10T11:29:13Z</time>
      </trkpt>
      <trkpt lat="45.75668" lon="4.82678">
        <ele>146</ele>
        <time>2015-04-10T11:29:15Z</time>
      </trkpt>
      <trkpt lat="45.75674" lon="4.82685">
        <ele>146</ele>
        <time>2015-04-10T11:29:18Z</time>
      </trkpt>
      <trkpt lat="45.7568" lon="4.8269">
        <ele>146</ele>
        <time>2015-04-10T11:29:20Z</time>
      </trkpt>
      <trkpt lat="45.75685" lon="4.82694">
        <ele>146</ele>
        <time>2015-04-10T11:29:22Z</time>
      </trkpt>
      <trkpt lat="45.75688" lon="4.82699">
        <ele>147</ele>
        <time>2015-04-10T11:29:24Z</time>
      </trkpt>
      <trkpt lat="45.75694" lon="4.82705">
        <ele>147</ele>
        <time>2015-04-10T11:29:26Z</time>
      </trkpt>
      <trkpt lat="45.757" lon="4.82714">
        <ele>147</ele>
        <time>2015-04-10T11:29:29Z</time>
      </trkpt>
      <trkpt lat="45.75705" lon="4.82719">
        <ele>147</ele>
        <time>2015-04-10T11:29:31Z</time>
      </trkpt>
      <trkpt lat="45.75708" lon="4.82725">
        <ele>148</ele>
        <time>2015-04-10T11:29:33Z</time>
      </trkpt>
      <trkpt lat="45.75713" lon="4.8273">
        <ele>148</ele>
        <time>2015-04-10T11:29:35Z</time>
      </trkpt>
      <trkpt lat="45.75718" lon="4.82736">
        <ele>148</ele>
        <time>2015-04-10T11:29:37Z</time>
      </trkpt>
      <trkpt lat="45.75723" lon="4.82741">
        <ele>148</ele>
        <time>2015-04-10T11:29:39Z</time>
      </trkpt>
      <trkpt lat="45.75729" lon="4.82746">
        <ele>149</ele>
        <time>2015-04-10T11:29:41Z</time>
      </trkpt>
      <trkpt lat="45.75734" lon="4.82752">
        <ele>149</ele>
        <time>2015-04-10T11:29:43Z</time>
      </trkpt>
      <trkpt lat="45.75738" lon="4.82757">
        <ele>149</ele>
        <time>2015-04-10T11:29:45Z</time>
      </trkpt>
      <trkpt lat="45.75747" lon="4.82763">
        <ele>150</ele>
        <time>2015-04-10T11:29:48Z</time>
      </trkpt>
      <trkpt lat="45.75752" lon="4.82769">
        <ele>150</ele>
        <time>2015-04-10T11:29:50Z</time>
      </trkpt>
      <trkpt lat="45.75757" lon="4.82773">
        <ele>150</ele>
        <time>2015-04-10T11:29:52Z</time>
      </trkpt>
      <trkpt lat="45.75761" lon="4.82778">
        <ele>151</ele>
        <time>2015-04-10T11:29:54Z</time>
      </trkpt>
      <trkpt lat="45.75766" lon="4.82782">
        <ele>151</ele>
        <time>2015-04-10T11:29:56Z</time>
      </trkpt>
      <trkpt lat="45.75774" lon="4.82787">
        <ele>151</ele>
        <time>2015-04-10T11:29:59Z</time>
      </trkpt>
      <trkpt lat="45.7578" lon="4.82791">
        <ele>152</ele>
        <time>2015-04-10T11:30:01Z</time>
      </trkpt>
      <trkpt lat="45.75785" lon="4.82796">
        <ele>152</ele>
        <time>2015-04-10T11:30:05Z</time>
      </trkpt>
      <trkpt lat="45.75794" lon="4.82803">
        <ele>153</ele>
        <time>2015-04-10T11:30:09Z</time>
      </trkpt>
      <trkpt lat="45.75803" lon="4.82812">
        <ele>153</ele>
        <time>2015-04-10T11:30:11Z</time>
      </trkpt>
      <trkpt lat="45.75806" lon="4.82818">
        <ele>153</ele>
        <time>2015-04-10T11:30:13Z</time>
      </trkpt>
      <trkpt lat="45.75811" lon="4.82822">
        <ele>154</ele>
        <time>2015-04-10T11:30:15Z</time>
      </trkpt>
      <trkpt lat="45.75819" lon="4.82828">
        <ele>154</ele>
        <time>2015-04-10T11:30:18Z</time>
      </trkpt>
      <trkpt lat="45.75825" lon="4.82834">
        <ele>154</ele>
        <time>2015-04-10T11:30:20Z</time>
      </trkpt>
      <trkpt lat="45.75828" lon="4.8284">
        <ele>155</ele>
        <time>2015-04-10T11:30:22Z</time>
      </trkpt>
      <trkpt lat="45.75833" lon="4.82846">
        <ele>155</ele>
        <time>2015-04-10T11:30:24Z</time>
      </trkpt>
      <trkpt lat="45.75842" lon="4.82855">
        <ele>156</ele>
        <time>2015-04-10T11:30:27Z</time>
      </trkpt>
      <trkpt lat="45.75849" lon="4.8286">
        <ele>156</ele>
        <time>2015-04-10T11:30:29Z</time>
      </trkpt>
      <trkpt lat="45.75855" lon="4.82866">
        <ele>156</ele>
        <time>2015-04-10T11:30:31Z</time>
      </trkpt>
      <trkpt lat="45.75862" lon="4.82871">
        <ele>157</ele>
        <time>2015-04-10T11:30:33Z</time>
      </trkpt>
      <trkpt lat="45.75868" lon="4.82876">
        <ele>157</ele>
        <time>2015-04-10T11:30:35Z</time>
      </trkpt>
      <trkpt lat="45.75873" lon="4.82882">
        <ele>157</ele>
        <time>2015-04-10T11:30:37Z</time>
      </trkpt>
      <trkpt lat="45.75876" lon="4.82887">
        <ele>157</ele>
        <time>2015-04-10T11:30:39Z</time>
      </trkpt>
      <trkpt lat="45.75881" lon="4.82894">
        <ele>158</ele>
        <time>2015-04-10T11:30:41Z</time>
      </trkpt>
      <trkpt lat="45.75885" lon="4.82899">
        <ele>158</ele>
        <time>2015-04-10T11:30:43Z</time>
      </trkpt>
      <trkpt lat="45.7589" lon="4.82904">
        <ele>159</ele>
        <time>2015-04-10T11:30:45Z</time>
      </trkpt>
      <trkpt lat="45.759" lon="4.82913">
        <ele>159</ele>
        <time>2015-04-10T11:30:48Z</time>
      </trkpt>
      <trkpt lat="45.75905" lon="4.82918">
        <ele>159</ele>
        <time>2015-04-10T11:30:50Z</time>
      </trkpt>
      <trkpt lat="45.7591" lon="4.8292">
        <ele>160</ele>
        <time>2015-04-10T11:30:54Z</time>
      </trkpt>
      <trkpt lat="45.75917" lon="4.82919">
        <ele>161</ele>
        <time>2015-04-10T11:30:57Z</time>
      </trkpt>
      <trkpt lat="45.75931" lon="4.82949">
        <ele>162</ele>
        <time>2015-04-10T11:31:07Z</time>
      </trkpt>
      <trkpt lat="45.7594" lon="4.82959">
        <ele>162</ele>
        <time>2015-04-10T11:31:09Z</time>
      </trkpt>
      <trkpt lat="45.75945" lon="4.82964">
        <ele>162</ele>
        <time>2015-04-10T11:31:11Z</time>
      </trkpt>
      <trkpt lat="45.75951" lon="4.82969">
        <ele>162</ele>
        <time>2015-04-10T11:31:13Z</time>
      </trkpt>
      <trkpt lat="45.75957" lon="4.82974">
        <ele>162</ele>
        <time>2015-04-10T11:31:15Z</time>
      </trkpt>
      <trkpt lat="45.75969" lon="4.82982">
        <ele>162</ele>
        <time>2015-04-10T11:31:18Z</time>
      </trkpt>
      <trkpt lat="45.75978" lon="4.82987">
        <ele>162</ele>
        <time>2015-04-10T11:31:20Z</time>
      </trkpt>
      <trkpt lat="45.75985" lon="4.82992">
        <ele>163</ele>
        <time>2015-04-10T11:31:22Z</time>
      </trkpt>
      <trkpt lat="45.75991" lon="4.82996">
        <ele>163</ele>
        <time>2015-04-10T11:31:24Z</time>
      </trkpt>
      <trkpt lat="45.75996" lon="4.83">
        <ele>163</ele>
        <time>2015-04-10T11:31:26Z</time>
      </trkpt>
      <trkpt lat="45.76001" lon="4.83006">
        <ele>163</ele>
        <time>2015-04-10T11:31:29Z</time>
      </trkpt>
      <trkpt lat="45.76006" lon="4.8301">
        <ele>164</ele>
        <time>2015-04-10T11:31:31Z</time>
      </trkpt>
      <trkpt lat="45.7601" lon="4.83014">
        <ele>164</ele>
        <time>2015-04-10T11:31:33Z</time>
      </trkpt>
      <trkpt lat="45.76015" lon="4.83018">
        <ele>164</ele>
        <time>2015-04-10T11:31:35Z</time>
      </trkpt>
      <trkpt lat="45.7602" lon="4.83023">
        <ele>164</ele>
        <time>2015-04-10T11:31:37Z</time>
      </trkpt>
      <trkpt lat="45.76026" lon="4.83028">
        <ele>165</ele>
        <time>2015-04-10T11:31:39Z</time>
      </trkpt>
      <trkpt lat="45.76031" lon="4.83037">
        <ele>165</ele>
        <time>2015-04-10T11:31:43Z</time>
      </trkpt>
      <trkpt lat="45.76038" lon="4.83044">
        <ele>165</ele>
        <time>2015-04-10T11:31:46Z</time>
      </trkpt>
      <trkpt lat="45.76045" lon="4.83048">
        <ele>165</ele>
        <time>2015-04-10T11:31:48Z</time>
      </trkpt>
      <trkpt lat="45.76051" lon="4.83053">
        <ele>165</ele>
        <time>2015-04-10T11:31:50Z</time>
      </trkpt>
      <trkpt lat="45.76059" lon="4.83057">
        <ele>166</ele>
        <time>2015-04-10T11:31:52Z</time>
      </trkpt>
      <trkpt lat="45.76066" lon="4.83063">
        <ele>166</ele>
        <time>2015-04-10T11:31:54Z</time>
      </trkpt>
      <trkpt lat="45.76073" lon="4.83066">
        <ele>166</ele>
        <time>2015-04-10T11:31:56Z</time>
      </trkpt>
      <trkpt lat="45.76083" lon="4.83071">
        <ele>167</ele>
        <time>2015-04-10T11:31:59Z</time>
      </trkpt>
      <trkpt lat="45.76089" lon="4.83072">
        <ele>167</ele>
        <time>2015-04-10T11:32:01Z</time>
      </trkpt>
      <trkpt lat="45.76094" lon="4.83074">
        <ele>167</ele>
        <time>2015-04-10T11:32:03Z</time>
      </trkpt>
      <trkpt lat="45.76103" lon="4.83077">
        <ele>168</ele>
        <time>2015-04-10T11:32:06Z</time>
      </trkpt>
      <trkpt lat="45.7611" lon="4.83079">
        <ele>169</ele>
        <time>2015-04-10T11:32:09Z</time>
      </trkpt>
      <trkpt lat="45.76119" lon="4.83082">
        <ele>169</ele>
        <time>2015-04-10T11:32:13Z</time>
      </trkpt>
      <trkpt lat="45.76125" lon="4.83085">
        <ele>169</ele>
        <time>2015-04-10T11:32:15Z</time>
      </trkpt>
      <trkpt lat="45.76136" lon="4.83089">
        <ele>170</ele>
        <time>2015-04-10T11:32:18Z</time>
      </trkpt>
      <trkpt lat="45.76144" lon="4.83092">
        <ele>170</ele>
        <time>2015-04-10T11:32:20Z</time>
      </trkpt>
      <trkpt lat="45.7615" lon="4.83094">
        <ele>170</ele>
        <time>2015-04-10T11:32:22Z</time>
      </trkpt>
      <trkpt lat="45.76156" lon="4.83095">
        <ele>171</ele>
        <time>2015-04-10T11:32:24Z</time>
      </trkpt>
      <trkpt lat="45.76161" lon="4.83099">
        <ele>171</ele>
        <time>2015-04-10T11:32:26Z</time>
      </trkpt>
      <trkpt lat="45.76168" lon="4.83102">
        <ele>171</ele>
        <time>2015-04-10T11:32:29Z</time>
      </trkpt>
      <trkpt lat="45.76174" lon="4.83103">
        <ele>172</ele>
        <time>2015-04-10T11:32:31Z</time>
      </trkpt>
      <trkpt lat="45.76178" lon="4.83104">
        <ele>172</ele>
        <time>2015-04-10T11:32:33Z</time>
      </trkpt>
      <trkpt lat="45.76185" lon="4.83105">
        <ele>172</ele>
        <time>2015-04-10T11:32:35Z</time>
      </trkpt>
      <trkpt lat="45.76192" lon="4.83107">
        <ele>172</ele>
        <time>2015-04-10T11:32:37Z</time>
      </trkpt>
      <trkpt lat="45.76199" lon="4.83107">
        <ele>173</ele>
        <time>2015-04-10T11:32:39Z</time>
      </trkpt>
      <trkpt lat="45.76205" lon="4.83105">
        <ele>173</ele>
        <time>2015-04-10T11:32:41Z</time>
      </trkpt>
      <trkpt lat="45.7621" lon="4.83104">
        <ele>173</ele>
        <time>2015-04-10T11:32:43Z</time>
      </trkpt>
      <trkpt lat="45.76217" lon="4.83106">
        <ele>174</ele>
        <time>2015-04-10T11:32:45Z</time>
      </trkpt>
      <trkpt lat="45.76226" lon="4.83108">
        <ele>174</ele>
        <time>2015-04-10T11:32:48Z</time>
      </trkpt>
      <trkpt lat="45.76232" lon="4.8311">
        <ele>174</ele>
        <time>2015-04-10T11:32:50Z</time>
      </trkpt>
      <trkpt lat="45.76238" lon="4.8311">
        <ele>175</ele>
        <time>2015-04-10T11:32:52Z</time>
      </trkpt>
      <trkpt lat="45.76244" lon="4.8311">
        <ele>175</ele>
        <time>2015-04-10T11:32:54Z</time>
      </trkpt>
      <trkpt lat="45.76248" lon="4.8311">
        <ele>176</ele>
        <time>2015-04-10T11:32:56Z</time>
      </trkpt>
      <trkpt lat="45.76258" lon="4.83112">
        <ele>176</ele>
        <time>2015-04-10T11:32:59Z</time>
      </trkpt>
      <trkpt lat="45.76265" lon="4.83116">
        <ele>177</ele>
        <time>2015-04-10T11:33:01Z</time>
      </trkpt>
      <trkpt lat="45.7627" lon="4.83117">
        <ele>177</ele>
        <time>2015-04-10T11:33:03Z</time>
      </trkpt>
      <trkpt lat="45.76276" lon="4.83117">
        <ele>177</ele>
        <time>2015-04-10T11:33:05Z</time>
      </trkpt>
      <trkpt lat="45.76281" lon="4.83117">
        <ele>178</ele>
        <time>2015-04-10T11:33:07Z</time>
      </trkpt>
      <trkpt lat="45.76288" lon="4.83119">
        <ele>178</ele>
        <time>2015-04-10T11:33:11Z</time>
      </trkpt>
      <trkpt lat="45.76295" lon="4.83119">
        <ele>178</ele>
        <time>2015-04-10T11:33:15Z</time>
      </trkpt>
      <trkpt lat="45.76301" lon="4.8311">
        <ele>180</ele>
        <time>2015-04-10T11:33:18Z</time>
      </trkpt>
      <trkpt lat="45.76306" lon="4.83104">
        <ele>182</ele>
        <time>2015-04-10T11:33:20Z</time>
      </trkpt>
      <trkpt lat="45.76309" lon="4.83098">
        <ele>183</ele>
        <time>2015-04-10T11:33:24Z</time>
      </trkpt>
      <trkpt lat="45.76316" lon="4.83103">
        <ele>183</ele>
        <time>2015-04-10T11:33:26Z</time>
      </trkpt>
      <trkpt lat="45.7632" lon="4.83106">
        <ele>183</ele>
        <time>2015-04-10T11:33:27Z</time>
      </trkpt>
      <trkpt lat="45.76328" lon="4.8311">
        <ele>183</ele>
        <time>2015-04-10T11:33:29Z</time>
      </trkpt>
      <trkpt lat="45.76336" lon="4.83113">
        <ele>183</ele>
        <time>2015-04-10T11:33:31Z</time>
      </trkpt>
      <trkpt lat="45.76342" lon="4.83114">
        <ele>183</ele>
        <time>2015-04-10T11:33:35Z</time>
      </trkpt>
      <trkpt lat="45.76351" lon="4.83115">
        <ele>184</ele>
        <time>2015-04-10T11:33:39Z</time>
      </trkpt>
      <trkpt lat="45.76358" lon="4.83114">
        <ele>184</ele>
        <time>2015-04-10T11:33:41Z</time>
      </trkpt>
      <trkpt lat="45.76362" lon="4.83115">
        <ele>185</ele>
        <time>2015-04-10T11:33:43Z</time>
      </trkpt>
      <trkpt lat="45.76369" lon="4.83115">
        <ele>185</ele>
        <time>2015-04-10T11:33:46Z</time>
      </trkpt>
      <trkpt lat="45.76375" lon="4.83115">
        <ele>186</ele>
        <time>2015-04-10T11:33:48Z</time>
      </trkpt>
      <trkpt lat="45.76378" lon="4.83122">
        <ele>186</ele>
        <time>2015-04-10T11:33:50Z</time>
      </trkpt>
      <trkpt lat="45.76382" lon="4.83125">
        <ele>186</ele>
        <time>2015-04-10T11:33:52Z</time>
      </trkpt>
      <trkpt lat="45.76392" lon="4.83131">
        <ele>186</ele>
        <time>2015-04-10T11:33:54Z</time>
      </trkpt>
      <trkpt lat="45.76399" lon="4.83133">
        <ele>186</ele>
        <time>2015-04-10T11:33:56Z</time>
      </trkpt>
      <trkpt lat="45.76408" lon="4.83118">
        <ele>186</ele>
        <time>2015-04-10T11:33:59Z</time>
      </trkpt>
      <trkpt lat="45.76414" lon="4.83112">
        <ele>185</ele>
        <time>2015-04-10T11:34:01Z</time>
      </trkpt>
      <trkpt lat="45.76422" lon="4.83115">
        <ele>185</ele>
        <time>2015-04-10T11:34:03Z</time>
      </trkpt>
      <trkpt lat="45.76432" lon="4.83115">
        <ele>185</ele>
        <time>2015-04-10T11:34:05Z</time>
      </trkpt>
      <trkpt lat="45.76441" lon="4.83114">
        <ele>185</ele>
        <time>2015-04-10T11:34:07Z</time>
      </trkpt>
      <trkpt lat="45.76449" lon="4.83115">
        <ele>184</ele>
        <time>2015-04-10T11:34:09Z</time>
      </trkpt>
      <trkpt lat="45.76457" lon="4.83119">
        <ele>184</ele>
        <time>2015-04-10T11:34:11Z</time>
      </trkpt>
      <trkpt lat="45.76464" lon="4.83124">
        <ele>184</ele>
        <time>2015-04-10T11:34:13Z</time>
      </trkpt>
      <trkpt lat="45.76469" lon="4.83123">
        <ele>184</ele>
        <time>2015-04-10T11:34:15Z</time>
      </trkpt>
      <trkpt lat="45.76478" lon="4.83121">
        <ele>184</ele>
        <time>2015-04-10T11:34:18Z</time>
      </trkpt>
      <trkpt lat="45.76482" lon="4.83121">
        <ele>184</ele>
        <time>2015-04-10T11:34:20Z</time>
      </trkpt>
      <trkpt lat="45.76488" lon="4.83119">
        <ele>185</ele>
        <time>2015-04-10T11:34:22Z</time>
      </trkpt>
      <trkpt lat="45.76493" lon="4.83116">
        <ele>185</ele>
        <time>2015-04-10T11:34:24Z</time>
      </trkpt>
      <trkpt lat="45.76498" lon="4.83114">
        <ele>185</ele>
        <time>2015-04-10T11:34:26Z</time>
      </trkpt>
      <trkpt lat="45.7651" lon="4.83115">
        <ele>185</ele>
        <time>2015-04-10T11:34:29Z</time>
      </trkpt>
      <trkpt lat="45.76519" lon="4.83117">
        <ele>186</ele>
        <time>2015-04-10T11:34:31Z</time>
      </trkpt>
      <trkpt lat="45.76529" lon="4.83119">
        <ele>186</ele>
        <time>2015-04-10T11:34:33Z</time>
      </trkpt>
      <trkpt lat="45.76537" lon="4.83118">
        <ele>187</ele>
        <time>2015-04-10T11:34:35Z</time>
      </trkpt>
      <trkpt lat="45.76545" lon="4.83118">
        <ele>187</ele>
        <time>2015-04-10T11:34:37Z</time>
      </trkpt>
      <trkpt lat="45.76552" lon="4.83119">
        <ele>187</ele>
        <time>2015-04-10T11:34:39Z</time>
      </trkpt>
      <trkpt lat="45.76559" lon="4.83119">
        <ele>187</ele>
        <time>2015-04-10T11:34:41Z</time>
      </trkpt>
      <trkpt lat="45.76566" lon="4.8312">
        <ele>187</ele>
        <time>2015-04-10T11:34:43Z</time>
      </trkpt>
      <trkpt lat="45.76571" lon="4.83118">
        <ele>188</ele>
        <time>2015-04-10T11:34:45Z</time>
      </trkpt>
      <trkpt lat="45.7658" lon="4.83118">
        <ele>189</ele>
        <time>2015-04-10T11:34:48Z</time>
      </trkpt>
      <trkpt lat="45.76588" lon="4.83119">
        <ele>189</ele>
        <time>2015-04-10T11:34:50Z</time>
      </trkpt>
      <trkpt lat="45.76595" lon="4.83118">
        <ele>190</ele>
        <time>2015-04-10T11:34:52Z</time>
      </trkpt>
      <trkpt lat="45.766" lon="4.83116">
        <ele>190</ele>
        <time>2015-04-10T11:34:54Z</time>
      </trkpt>
      <trkpt lat="45.76608" lon="4.8312">
        <ele>191</ele>
        <time>2015-04-10T11:34:56Z</time>
      </trkpt>
      <trkpt lat="45.76614" lon="4.83111">
        <ele>191</ele>
        <time>2015-04-10T11:34:59Z</time>
      </trkpt>
      <trkpt lat="45.76619" lon="4.83105">
        <ele>191</ele>
        <time>2015-04-10T11:35:01Z</time>
      </trkpt>
      <trkpt lat="45.76625" lon="4.83106">
        <ele>191</ele>
        <time>2015-04-10T11:35:03Z</time>
      </trkpt>
      <trkpt lat="45.76632" lon="4.83107">
        <ele>191</ele>
        <time>2015-04-10T11:35:05Z</time>
      </trkpt>
      <trkpt lat="45.76638" lon="4.83106">
        <ele>192</ele>
        <time>2015-04-10T11:35:07Z</time>
      </trkpt>
      <trkpt lat="45.76643" lon="4.83103">
        <ele>192</ele>
        <time>2015-04-10T11:35:09Z</time>
      </trkpt>
      <trkpt lat="45.76649" lon="4.83102">
        <ele>192</ele>
        <time>2015-04-10T11:35:11Z</time>
      </trkpt>
      <trkpt lat="45.76655" lon="4.83102">
        <ele>192</ele>
        <time>2015-04-10T11:35:13Z</time>
      </trkpt>
      <trkpt lat="45.76661" lon="4.83102">
        <ele>192</ele>
        <time>2015-04-10T11:35:15Z</time>
      </trkpt>
      <trkpt lat="45.76671" lon="4.83104">
        <ele>192</ele>
        <time>2015-04-10T11:35:18Z</time>
      </trkpt>
      <trkpt lat="45.76677" lon="4.83105">
        <ele>192</ele>
        <time>2015-04-10T11:35:20Z</time>
      </trkpt>
      <trkpt lat="45.76683" lon="4.83109">
        <ele>192</ele>
        <time>2015-04-10T11:35:22Z</time>
      </trkpt>
      <trkpt lat="45.76688" lon="4.83102">
        <ele>192</ele>
        <time>2015-04-10T11:35:24Z</time>
      </trkpt>
      <trkpt lat="45.76695" lon="4.83091">
        <ele>192</ele>
        <time>2015-04-10T11:35:27Z</time>
      </trkpt>
      <trkpt lat="45.76698" lon="4.83083">
        <ele>192</ele>
        <time>2015-04-10T11:35:29Z</time>
      </trkpt>
      <trkpt lat="45.76704" lon="4.83083">
        <ele>192</ele>
        <time>2015-04-10T11:35:31Z</time>
      </trkpt>
      <trkpt lat="45.76727" lon="4.83044">
        <ele>191</ele>
        <time>2015-04-10T11:35:41Z</time>
      </trkpt>
      <trkpt lat="45.76728" lon="4.83036">
        <ele>191</ele>
        <time>2015-04-10T11:35:42Z</time>
      </trkpt>
      <trkpt lat="45.7673" lon="4.83021">
        <ele>191</ele>
        <time>2015-04-10T11:35:44Z</time>
      </trkpt>
      <trkpt lat="45.76731" lon="4.83014">
        <ele>191</ele>
        <time>2015-04-10T11:35:45Z</time>
      </trkpt>
      <trkpt lat="45.76732" lon="4.83007">
        <ele>191</ele>
        <time>2015-04-10T11:35:46Z</time>
      </trkpt>
      <trkpt lat="45.76735" lon="4.82996">
        <ele>191</ele>
        <time>2015-04-10T11:35:48Z</time>
      </trkpt>
      <trkpt lat="45.76737" lon="4.82978">
        <ele>191</ele>
        <time>2015-04-10T11:35:50Z</time>
      </trkpt>
      <trkpt lat="45.76741" lon="4.82972">
        <ele>191</ele>
        <time>2015-04-10T11:35:52Z</time>
      </trkpt>
      <trkpt lat="45.76745" lon="4.82967">
        <ele>191</ele>
        <time>2015-04-10T11:35:54Z</time>
      </trkpt>
      <trkpt lat="45.7675" lon="4.82962">
        <ele>191</ele>
        <time>2015-04-10T11:35:56Z</time>
      </trkpt>
      <trkpt lat="45.76756" lon="4.82952">
        <ele>191</ele>
        <time>2015-04-10T11:35:59Z</time>
      </trkpt>
      <trkpt lat="45.76759" lon="4.82942">
        <ele>192</ele>
        <time>2015-04-10T11:36:01Z</time>
      </trkpt>
      <trkpt lat="45.76762" lon="4.82931">
        <ele>192</ele>
        <time>2015-04-10T11:36:03Z</time>
      </trkpt>
      <trkpt lat="45.76764" lon="4.82919">
        <ele>192</ele>
        <time>2015-04-10T11:36:05Z</time>
      </trkpt>
      <trkpt lat="45.76767" lon="4.82909">
        <ele>192</ele>
        <time>2015-04-10T11:36:07Z</time>
      </trkpt>
      <trkpt lat="45.76764" lon="4.82878">
        <ele>192</ele>
        <time>2015-04-10T11:36:09Z</time>
      </trkpt>
      <trkpt lat="45.76764" lon="4.82858">
        <ele>191</ele>
        <time>2015-04-10T11:36:11Z</time>
      </trkpt>
      <trkpt lat="45.76766" lon="4.82846">
        <ele>191</ele>
        <time>2015-04-10T11:36:13Z</time>
      </trkpt>
      <trkpt lat="45.76769" lon="4.82839">
        <ele>192</ele>
        <time>2015-04-10T11:36:15Z</time>
      </trkpt>
      <trkpt lat="45.76773" lon="4.82829">
        <ele>192</ele>
        <time>2015-04-10T11:36:18Z</time>
      </trkpt>
      <trkpt lat="45.76781" lon="4.82822">
        <ele>192</ele>
        <time>2015-04-10T11:36:22Z</time>
      </trkpt>
      <trkpt lat="45.76785" lon="4.82817">
        <ele>193</ele>
        <time>2015-04-10T11:36:24Z</time>
      </trkpt>
      <trkpt lat="45.7679" lon="4.8281">
        <ele>193</ele>
        <time>2015-04-10T11:36:27Z</time>
      </trkpt>
      <trkpt lat="45.76795" lon="4.82806">
        <ele>193</ele>
        <time>2015-04-10T11:36:29Z</time>
      </trkpt>
      <trkpt lat="45.76798" lon="4.82798">
        <ele>194</ele>
        <time>2015-04-10T11:36:31Z</time>
      </trkpt>
      <trkpt lat="45.768" lon="4.82792">
        <ele>194</ele>
        <time>2015-04-10T11:36:33Z</time>
      </trkpt>
      <trkpt lat="45.76803" lon="4.82784">
        <ele>194</ele>
        <time>2015-04-10T11:36:35Z</time>
      </trkpt>
      <trkpt lat="45.76805" lon="4.82774">
        <ele>195</ele>
        <time>2015-04-10T11:36:37Z</time>
      </trkpt>
      <trkpt lat="45.76805" lon="4.8276">
        <ele>195</ele>
        <time>2015-04-10T11:36:39Z</time>
      </trkpt>
      <trkpt lat="45.76806" lon="4.82751">
        <ele>195</ele>
        <time>2015-04-10T11:36:41Z</time>
      </trkpt>
      <trkpt lat="45.76809" lon="4.82743">
        <ele>195</ele>
        <time>2015-04-10T11:36:43Z</time>
      </trkpt>
      <trkpt lat="45.76812" lon="4.82737">
        <ele>196</ele>
        <time>2015-04-10T11:36:45Z</time>
      </trkpt>
      <trkpt lat="45.76814" lon="4.82727">
        <ele>196</ele>
        <time>2015-04-10T11:36:47Z</time>
      </trkpt>
      <trkpt lat="45.76818" lon="4.82715">
        <ele>196</ele>
        <time>2015-04-10T11:36:50Z</time>
      </trkpt>
      <trkpt lat="45.76817" lon="4.82696">
        <ele>196</ele>
        <time>2015-04-10T11:36:52Z</time>
      </trkpt>
      <trkpt lat="45.76817" lon="4.82683">
        <ele>196</ele>
        <time>2015-04-10T11:36:54Z</time>
      </trkpt>
      <trkpt lat="45.76819" lon="4.82673">
        <ele>196</ele>
        <time>2015-04-10T11:36:56Z</time>
      </trkpt>
      <trkpt lat="45.7682" lon="4.82658">
        <ele>196</ele>
        <time>2015-04-10T11:36:59Z</time>
      </trkpt>
      <trkpt lat="45.76822" lon="4.82648">
        <ele>197</ele>
        <time>2015-04-10T11:37:01Z</time>
      </trkpt>
      <trkpt lat="45.76823" lon="4.82638">
        <ele>197</ele>
        <time>2015-04-10T11:37:03Z</time>
      </trkpt>
      <trkpt lat="45.76825" lon="4.8263">
        <ele>197</ele>
        <time>2015-04-10T11:37:05Z</time>
      </trkpt>
      <trkpt lat="45.76827" lon="4.82621">
        <ele>197</ele>
        <time>2015-04-10T11:37:07Z</time>
      </trkpt>
      <trkpt lat="45.76828" lon="4.82613">
        <ele>197</ele>
        <time>2015-04-10T11:37:09Z</time>
      </trkpt>
      <trkpt lat="45.76829" lon="4.82603">
        <ele>197</ele>
        <time>2015-04-10T11:37:11Z</time>
      </trkpt>
      <trkpt lat="45.76831" lon="4.8259">
        <ele>197</ele>
        <time>2015-04-10T11:37:14Z</time>
      </trkpt>
      <trkpt lat="45.76831" lon="4.82576">
        <ele>198</ele>
        <time>2015-04-10T11:37:17Z</time>
      </trkpt>
      <trkpt lat="45.76831" lon="4.82562">
        <ele>199</ele>
        <time>2015-04-10T11:37:20Z</time>
      </trkpt>
      <trkpt lat="45.76831" lon="4.82554">
        <ele>199</ele>
        <time>2015-04-10T11:37:22Z</time>
      </trkpt>
      <trkpt lat="45.7683" lon="4.82544">
        <ele>200</ele>
        <time>2015-04-10T11:37:24Z</time>
      </trkpt>
      <trkpt lat="45.76829" lon="4.82535">
        <ele>200</ele>
        <time>2015-04-10T11:37:26Z</time>
      </trkpt>
      <trkpt lat="45.76829" lon="4.82521">
        <ele>201</ele>
        <time>2015-04-10T11:37:29Z</time>
      </trkpt>
      <trkpt lat="45.7683" lon="4.82511">
        <ele>201</ele>
        <time>2015-04-10T11:37:31Z</time>
      </trkpt>
      <trkpt lat="45.7683" lon="4.82503">
        <ele>202</ele>
        <time>2015-04-10T11:37:33Z</time>
      </trkpt>
      <trkpt lat="45.76831" lon="4.82497">
        <ele>202</ele>
        <time>2015-04-10T11:37:35Z</time>
      </trkpt>
      <trkpt lat="45.76831" lon="4.8249">
        <ele>202</ele>
        <time>2015-04-10T11:37:37Z</time>
      </trkpt>
      <trkpt lat="45.76831" lon="4.82481">
        <ele>202</ele>
        <time>2015-04-10T11:37:39Z</time>
      </trkpt>
      <trkpt lat="45.76831" lon="4.82472">
        <ele>202</ele>
        <time>2015-04-10T11:37:41Z</time>
      </trkpt>
      <trkpt lat="45.76829" lon="4.82463">
        <ele>203</ele>
        <time>2015-04-10T11:37:43Z</time>
      </trkpt>
      <trkpt lat="45.76828" lon="4.82454">
        <ele>203</ele>
        <time>2015-04-10T11:37:45Z</time>
      </trkpt>
      <trkpt lat="45.76828" lon="4.82447">
        <ele>203</ele>
        <time>2015-04-10T11:37:47Z</time>
      </trkpt>
      <trkpt lat="45.76828" lon="4.82436">
        <ele>204</ele>
        <time>2015-04-10T11:37:50Z</time>
      </trkpt>
      <trkpt lat="45.76828" lon="4.82428">
        <ele>203</ele>
        <time>2015-04-10T11:37:52Z</time>
      </trkpt>
      <trkpt lat="45.76827" lon="4.82419">
        <ele>203</ele>
        <time>2015-04-10T11:37:54Z</time>
      </trkpt>
      <trkpt lat="45.76826" lon="4.82409">
        <ele>204</ele>
        <time>2015-04-10T11:37:56Z</time>
      </trkpt>
      <trkpt lat="45.76824" lon="4.82395">
        <ele>204</ele>
        <time>2015-04-10T11:37:59Z</time>
      </trkpt>
      <trkpt lat="45.7682" lon="4.82382">
        <ele>205</ele>
        <time>2015-04-10T11:38:02Z</time>
      </trkpt>
      <trkpt lat="45.76816" lon="4.82369">
        <ele>206</ele>
        <time>2015-04-10T11:38:05Z</time>
      </trkpt>
      <trkpt lat="45.76816" lon="4.82362">
        <ele>206</ele>
        <time>2015-04-10T11:38:07Z</time>
      </trkpt>
      <trkpt lat="45.76816" lon="4.82355">
        <ele>206</ele>
        <time>2015-04-10T11:38:09Z</time>
      </trkpt>
      <trkpt lat="45.76815" lon="4.82347">
        <ele>206</ele>
        <time>2015-04-10T11:38:11Z</time>
      </trkpt>
      <trkpt lat="45.76816" lon="4.82337">
        <ele>206</ele>
        <time>2015-04-10T11:38:13Z</time>
      </trkpt>
      <trkpt lat="45.76817" lon="4.8233">
        <ele>206</ele>
        <time>2015-04-10T11:38:15Z</time>
      </trkpt>
      <trkpt lat="45.76817" lon="4.82321">
        <ele>206</ele>
        <time>2015-04-10T11:38:17Z</time>
      </trkpt>
      <trkpt lat="45.76816" lon="4.82307">
        <ele>207</ele>
        <time>2015-04-10T11:38:20Z</time>
      </trkpt>
      <trkpt lat="45.76816" lon="4.82297">
        <ele>208</ele>
        <time>2015-04-10T11:38:22Z</time>
      </trkpt>
      <trkpt lat="45.76815" lon="4.82286">
        <ele>208</ele>
        <time>2015-04-10T11:38:24Z</time>
      </trkpt>
      <trkpt lat="45.76815" lon="4.82276">
        <ele>208</ele>
        <time>2015-04-10T11:38:26Z</time>
      </trkpt>
      <trkpt lat="45.76814" lon="4.82261">
        <ele>209</ele>
        <time>2015-04-10T11:38:29Z</time>
      </trkpt>
      <trkpt lat="45.76814" lon="4.82253">
        <ele>210</ele>
        <time>2015-04-10T11:38:31Z</time>
      </trkpt>
      <trkpt lat="45.76812" lon="4.82243">
        <ele>210</ele>
        <time>2015-04-10T11:38:33Z</time>
      </trkpt>
      <trkpt lat="45.76811" lon="4.82236">
        <ele>211</ele>
        <time>2015-04-10T11:38:35Z</time>
      </trkpt>
      <trkpt lat="45.7681" lon="4.82228">
        <ele>211</ele>
        <time>2015-04-10T11:38:37Z</time>
      </trkpt>
      <trkpt lat="45.76811" lon="4.82218">
        <ele>212</ele>
        <time>2015-04-10T11:38:39Z</time>
      </trkpt>
      <trkpt lat="45.76811" lon="4.8221">
        <ele>212</ele>
        <time>2015-04-10T11:38:41Z</time>
      </trkpt>
      <trkpt lat="45.7681" lon="4.82201">
        <ele>213</ele>
        <time>2015-04-10T11:38:43Z</time>
      </trkpt>
      <trkpt lat="45.76809" lon="4.82192">
        <ele>213</ele>
        <time>2015-04-10T11:38:45Z</time>
      </trkpt>
      <trkpt lat="45.76809" lon="4.82185">
        <ele>214</ele>
        <time>2015-04-10T11:38:47Z</time>
      </trkpt>
      <trkpt lat="45.76806" lon="4.82172">
        <ele>215</ele>
        <time>2015-04-10T11:38:50Z</time>
      </trkpt>
      <trkpt lat="45.76805" lon="4.82159">
        <ele>215</ele>
        <time>2015-04-10T11:38:54Z</time>
      </trkpt>
      <trkpt lat="45.76805" lon="4.8215">
        <ele>216</ele>
        <time>2015-04-10T11:38:56Z</time>
      </trkpt>
      <trkpt lat="45.76803" lon="4.82137">
        <ele>216</ele>
        <time>2015-04-10T11:38:59Z</time>
      </trkpt>
      <trkpt lat="45.76801" lon="4.82129">
        <ele>217</ele>
        <time>2015-04-10T11:39:01Z</time>
      </trkpt>
      <trkpt lat="45.76798" lon="4.82121">
        <ele>218</ele>
        <time>2015-04-10T11:39:03Z</time>
      </trkpt>
      <trkpt lat="45.76796" lon="4.82113">
        <ele>218</ele>
        <time>2015-04-10T11:39:05Z</time>
      </trkpt>
      <trkpt lat="45.76797" lon="4.82104">
        <ele>219</ele>
        <time>2015-04-10T11:39:07Z</time>
      </trkpt>
      <trkpt lat="45.76796" lon="4.82095">
        <ele>219</ele>
        <time>2015-04-10T11:39:09Z</time>
      </trkpt>
      <trkpt lat="45.76794" lon="4.82086">
        <ele>220</ele>
        <time>2015-04-10T11:39:11Z</time>
      </trkpt>
      <trkpt lat="45.76791" lon="4.82077">
        <ele>221</ele>
        <time>2015-04-10T11:39:13Z</time>
      </trkpt>
      <trkpt lat="45.7679" lon="4.82067">
        <ele>221</ele>
        <time>2015-04-10T11:39:15Z</time>
      </trkpt>
      <trkpt lat="45.76788" lon="4.82058">
        <ele>222</ele>
        <time>2015-04-10T11:39:17Z</time>
      </trkpt>
      <trkpt lat="45.76786" lon="4.82046">
        <ele>223</ele>
        <time>2015-04-10T11:39:20Z</time>
      </trkpt>
      <trkpt lat="45.76785" lon="4.82038">
        <ele>224</ele>
        <time>2015-04-10T11:39:22Z</time>
      </trkpt>
      <trkpt lat="45.76786" lon="4.8203">
        <ele>224</ele>
        <time>2015-04-10T11:39:24Z</time>
      </trkpt>
      <trkpt lat="45.76785" lon="4.82023">
        <ele>224</ele>
        <time>2015-04-10T11:39:26Z</time>
      </trkpt>
      <trkpt lat="45.76777" lon="4.82013">
        <ele>222</ele>
        <time>2015-04-10T11:39:29Z</time>
      </trkpt>
      <trkpt lat="45.76774" lon="4.82007">
        <ele>221</ele>
        <time>2015-04-10T11:39:31Z</time>
      </trkpt>
      <trkpt lat="45.76772" lon="4.82">
        <ele>221</ele>
        <time>2015-04-10T11:39:33Z</time>
      </trkpt>
      <trkpt lat="45.76768" lon="4.81991">
        <ele>220</ele>
        <time>2015-04-10T11:39:35Z</time>
      </trkpt>
      <trkpt lat="45.76766" lon="4.81982">
        <ele>220</ele>
        <time>2015-04-10T11:39:37Z</time>
      </trkpt>
      <trkpt lat="45.76764" lon="4.81974">
        <ele>219</ele>
        <time>2015-04-10T11:39:39Z</time>
      </trkpt>
      <trkpt lat="45.76761" lon="4.81966">
        <ele>219</ele>
        <time>2015-04-10T11:39:41Z</time>
      </trkpt>
      <trkpt lat="45.76758" lon="4.81957">
        <ele>219</ele>
        <time>2015-04-10T11:39:43Z</time>
      </trkpt>
      <trkpt lat="45.76756" lon="4.81949">
        <ele>219</ele>
        <time>2015-04-10T11:39:45Z</time>
      </trkpt>
      <trkpt lat="45.76754" lon="4.81941">
        <ele>219</ele>
        <time>2015-04-10T11:39:47Z</time>
      </trkpt>
      <trkpt lat="45.76752" lon="4.81928">
        <ele>218</ele>
        <time>2015-04-10T11:39:50Z</time>
      </trkpt>
      <trkpt lat="45.7675" lon="4.8192">
        <ele>218</ele>
        <time>2015-04-10T11:39:52Z</time>
      </trkpt>
      <trkpt lat="45.76747" lon="4.81911">
        <ele>218</ele>
        <time>2015-04-10T11:39:54Z</time>
      </trkpt>
      <trkpt lat="45.76745" lon="4.81902">
        <ele>217</ele>
        <time>2015-04-10T11:39:56Z</time>
      </trkpt>
      <trkpt lat="45.7674" lon="4.81888">
        <ele>217</ele>
        <time>2015-04-10T11:39:59Z</time>
      </trkpt>
      <trkpt lat="45.76738" lon="4.81878">
        <ele>216</ele>
        <time>2015-04-10T11:40:01Z</time>
      </trkpt>
      <trkpt lat="45.76737" lon="4.81869">
        <ele>216</ele>
        <time>2015-04-10T11:40:03Z</time>
      </trkpt>
      <trkpt lat="45.76736" lon="4.81861">
        <ele>215</ele>
        <time>2015-04-10T11:40:05Z</time>
      </trkpt>
      <trkpt lat="45.76735" lon="4.81852">
        <ele>214</ele>
        <time>2015-04-10T11:40:07Z</time>
      </trkpt>
      <trkpt lat="45.76736" lon="4.81844">
        <ele>213</ele>
        <time>2015-04-10T11:40:09Z</time>
      </trkpt>
      <trkpt lat="45.76737" lon="4.81836">
        <ele>212</ele>
        <time>2015-04-10T11:40:11Z</time>
      </trkpt>
      <trkpt lat="45.76738" lon="4.81827">
        <ele>212</ele>
        <time>2015-04-10T11:40:13Z</time>
      </trkpt>
      <trkpt lat="45.7674" lon="4.81818">
        <ele>212</ele>
        <time>2015-04-10T11:40:15Z</time>
      </trkpt>
      <trkpt lat="45.7674" lon="4.8181">
        <ele>211</ele>
        <time>2015-04-10T11:40:17Z</time>
      </trkpt>
      <trkpt lat="45.76743" lon="4.81796">
        <ele>210</ele>
        <time>2015-04-10T11:40:20Z</time>
      </trkpt>
      <trkpt lat="45.76744" lon="4.81786">
        <ele>210</ele>
        <time>2015-04-10T11:40:22Z</time>
      </trkpt>
      <trkpt lat="45.76745" lon="4.81777">
        <ele>210</ele>
        <time>2015-04-10T11:40:24Z</time>
      </trkpt>
      <trkpt lat="45.76747" lon="4.81769">
        <ele>209</ele>
        <time>2015-04-10T11:40:26Z</time>
      </trkpt>
      <trkpt lat="45.76749" lon="4.81757">
        <ele>209</ele>
        <time>2015-04-10T11:40:29Z</time>
      </trkpt>
      <trkpt lat="45.76751" lon="4.8175">
        <ele>209</ele>
        <time>2015-04-10T11:40:31Z</time>
      </trkpt>
      <trkpt lat="45.7675" lon="4.81739">
        <ele>209</ele>
        <time>2015-04-10T11:40:33Z</time>
      </trkpt>
      <trkpt lat="45.7675" lon="4.8173">
        <ele>209</ele>
        <time>2015-04-10T11:40:35Z</time>
      </trkpt>
      <trkpt lat="45.76752" lon="4.81722">
        <ele>209</ele>
        <time>2015-04-10T11:40:37Z</time>
      </trkpt>
      <trkpt lat="45.76754" lon="4.81714">
        <ele>209</ele>
        <time>2015-04-10T11:40:39Z</time>
      </trkpt>
      <trkpt lat="45.76756" lon="4.81706">
        <ele>209</ele>
        <time>2015-04-10T11:40:41Z</time>
      </trkpt>
      <trkpt lat="45.76758" lon="4.81699">
        <ele>209</ele>
        <time>2015-04-10T11:40:43Z</time>
      </trkpt>
      <trkpt lat="45.76761" lon="4.81692">
        <ele>209</ele>
        <time>2015-04-10T11:40:45Z</time>
      </trkpt>
      <trkpt lat="45.76763" lon="4.81684">
        <ele>209</ele>
        <time>2015-04-10T11:40:47Z</time>
      </trkpt>
      <trkpt lat="45.76764" lon="4.81669">
        <ele>209</ele>
        <time>2015-04-10T11:40:50Z</time>
      </trkpt>
      <trkpt lat="45.76764" lon="4.81662">
        <ele>209</ele>
        <time>2015-04-10T11:40:52Z</time>
      </trkpt>
      <trkpt lat="45.76767" lon="4.81655">
        <ele>209</ele>
        <time>2015-04-10T11:40:54Z</time>
      </trkpt>
      <trkpt lat="45.76767" lon="4.81645">
        <ele>209</ele>
        <time>2015-04-10T11:40:56Z</time>
      </trkpt>
      <trkpt lat="45.76769" lon="4.8163">
        <ele>209</ele>
        <time>2015-04-10T11:40:59Z</time>
      </trkpt>
      <trkpt lat="45.7677" lon="4.81623">
        <ele>209</ele>
        <time>2015-04-10T11:41:01Z</time>
      </trkpt>
      <trkpt lat="45.76773" lon="4.81615">
        <ele>209</ele>
        <time>2015-04-10T11:41:03Z</time>
      </trkpt>
      <trkpt lat="45.76781" lon="4.81607">
        <ele>209</ele>
        <time>2015-04-10T11:41:07Z</time>
      </trkpt>
      <trkpt lat="45.76785" lon="4.81601">
        <ele>208</ele>
        <time>2015-04-10T11:41:09Z</time>
      </trkpt>
      <trkpt lat="45.76787" lon="4.81592">
        <ele>208</ele>
        <time>2015-04-10T11:41:11Z</time>
      </trkpt>
      <trkpt lat="45.76791" lon="4.81587">
        <ele>208</ele>
        <time>2015-04-10T11:41:13Z</time>
      </trkpt>
      <trkpt lat="45.76794" lon="4.81581">
        <ele>208</ele>
        <time>2015-04-10T11:41:15Z</time>
      </trkpt>
      <trkpt lat="45.76796" lon="4.81573">
        <ele>208</ele>
        <time>2015-04-10T11:41:17Z</time>
      </trkpt>
      <trkpt lat="45.768" lon="4.8156">
        <ele>208</ele>
        <time>2015-04-10T11:41:20Z</time>
      </trkpt>
      <trkpt lat="45.76802" lon="4.81552">
        <ele>208</ele>
        <time>2015-04-10T11:41:22Z</time>
      </trkpt>
      <trkpt lat="45.76805" lon="4.81542">
        <ele>207</ele>
        <time>2015-04-10T11:41:24Z</time>
      </trkpt>
      <trkpt lat="45.76809" lon="4.81535">
        <ele>207</ele>
        <time>2015-04-10T11:41:26Z</time>
      </trkpt>
      <trkpt lat="45.76814" lon="4.81525">
        <ele>207</ele>
        <time>2015-04-10T11:41:29Z</time>
      </trkpt>
      <trkpt lat="45.76818" lon="4.8152">
        <ele>206</ele>
        <time>2015-04-10T11:41:31Z</time>
      </trkpt>
      <trkpt lat="45.76821" lon="4.81512">
        <ele>206</ele>
        <time>2015-04-10T11:41:33Z</time>
      </trkpt>
      <trkpt lat="45.76825" lon="4.81504">
        <ele>206</ele>
        <time>2015-04-10T11:41:35Z</time>
      </trkpt>
      <trkpt lat="45.76828" lon="4.81496">
        <ele>206</ele>
        <time>2015-04-10T11:41:37Z</time>
      </trkpt>
      <trkpt lat="45.76833" lon="4.81489">
        <ele>205</ele>
        <time>2015-04-10T11:41:39Z</time>
      </trkpt>
      <trkpt lat="45.76839" lon="4.81484">
        <ele>205</ele>
        <time>2015-04-10T11:41:41Z</time>
      </trkpt>
      <trkpt lat="45.76844" lon="4.81482">
        <ele>205</ele>
        <time>2015-04-10T11:41:43Z</time>
      </trkpt>
      <trkpt lat="45.76849" lon="4.81478">
        <ele>205</ele>
        <time>2015-04-10T11:41:45Z</time>
      </trkpt>
      <trkpt lat="45.76854" lon="4.81474">
        <ele>205</ele>
        <time>2015-04-10T11:41:47Z</time>
      </trkpt>
      <trkpt lat="45.76862" lon="4.81468">
        <ele>205</ele>
        <time>2015-04-10T11:41:50Z</time>
      </trkpt>
      <trkpt lat="45.76866" lon="4.81462">
        <ele>205</ele>
        <time>2015-04-10T11:41:52Z</time>
      </trkpt>
      <trkpt lat="45.76869" lon="4.81454">
        <ele>205</ele>
        <time>2015-04-10T11:41:54Z</time>
      </trkpt>
      <trkpt lat="45.76872" lon="4.81447">
        <ele>205</ele>
        <time>2015-04-10T11:41:56Z</time>
      </trkpt>
      <trkpt lat="45.76876" lon="4.81443">
        <ele>205</ele>
        <time>2015-04-10T11:41:58Z</time>
      </trkpt>
      <trkpt lat="45.76881" lon="4.81438">
        <ele>205</ele>
        <time>2015-04-10T11:42:00Z</time>
      </trkpt>
      <trkpt lat="45.76887" lon="4.81437">
        <ele>205</ele>
        <time>2015-04-10T11:42:02Z</time>
      </trkpt>
      <trkpt lat="45.76896" lon="4.81435">
        <ele>206</ele>
        <time>2015-04-10T11:42:05Z</time>
      </trkpt>
      <trkpt lat="45.76901" lon="4.81432">
        <ele>206</ele>
        <time>2015-04-10T11:42:07Z</time>
      </trkpt>
      <trkpt lat="45.76905" lon="4.81428">
        <ele>206</ele>
        <time>2015-04-10T11:42:09Z</time>
      </trkpt>
      <trkpt lat="45.76911" lon="4.81424">
        <ele>206</ele>
        <time>2015-04-10T11:42:11Z</time>
      </trkpt>
      <trkpt lat="45.76915" lon="4.81422">
        <ele>206</ele>
        <time>2015-04-10T11:42:13Z</time>
      </trkpt>
      <trkpt lat="45.7692" lon="4.81419">
        <ele>206</ele>
        <time>2015-04-10T11:42:15Z</time>
      </trkpt>
      <trkpt lat="45.76925" lon="4.81418">
        <ele>206</ele>
        <time>2015-04-10T11:42:17Z</time>
      </trkpt>
      <trkpt lat="45.76933" lon="4.81417">
        <ele>206</ele>
        <time>2015-04-10T11:42:20Z</time>
      </trkpt>
      <trkpt lat="45.76939" lon="4.81416">
        <ele>206</ele>
        <time>2015-04-10T11:42:22Z</time>
      </trkpt>
      <trkpt lat="45.76945" lon="4.81415">
        <ele>206</ele>
        <time>2015-04-10T11:42:24Z</time>
      </trkpt>
      <trkpt lat="45.76951" lon="4.81413">
        <ele>206</ele>
        <time>2015-04-10T11:42:26Z</time>
      </trkpt>
      <trkpt lat="45.76959" lon="4.8141">
        <ele>206</ele>
        <time>2015-04-10T11:42:29Z</time>
      </trkpt>
      <trkpt lat="45.76964" lon="4.81407">
        <ele>206</ele>
        <time>2015-04-10T11:42:31Z</time>
      </trkpt>
      <trkpt lat="45.76969" lon="4.81403">
        <ele>206</ele>
        <time>2015-04-10T11:42:33Z</time>
      </trkpt>
      <trkpt lat="45.76975" lon="4.81398">
        <ele>206</ele>
        <time>2015-04-10T11:42:35Z</time>
      </trkpt>
      <trkpt lat="45.7698" lon="4.81395">
        <ele>206</ele>
        <time>2015-04-10T11:42:37Z</time>
      </trkpt>
      <trkpt lat="45.76986" lon="4.81395">
        <ele>206</ele>
        <time>2015-04-10T11:42:39Z</time>
      </trkpt>
      <trkpt lat="45.7699" lon="4.8139">
        <ele>206</ele>
        <time>2015-04-10T11:42:41Z</time>
      </trkpt>
      <trkpt lat="45.76995" lon="4.81387">
        <ele>206</ele>
        <time>2015-04-10T11:42:43Z</time>
      </trkpt>
      <trkpt lat="45.77001" lon="4.81385">
        <ele>206</ele>
        <time>2015-04-10T11:42:45Z</time>
      </trkpt>
      <trkpt lat="45.77007" lon="4.81378">
        <ele>206</ele>
        <time>2015-04-10T11:42:48Z</time>
      </trkpt>
      <trkpt lat="45.7701" lon="4.81372">
        <ele>207</ele>
        <time>2015-04-10T11:42:50Z</time>
      </trkpt>
      <trkpt lat="45.77015" lon="4.81364">
        <ele>207</ele>
        <time>2015-04-10T11:42:52Z</time>
      </trkpt>
      <trkpt lat="45.77021" lon="4.81361">
        <ele>207</ele>
        <time>2015-04-10T11:42:54Z</time>
      </trkpt>
      <trkpt lat="45.77026" lon="4.81355">
        <ele>207</ele>
        <time>2015-04-10T11:42:56Z</time>
      </trkpt>
      <trkpt lat="45.77034" lon="4.81354">
        <ele>207</ele>
        <time>2015-04-10T11:42:59Z</time>
      </trkpt>
      <trkpt lat="45.77042" lon="4.81361">
        <ele>208</ele>
        <time>2015-04-10T11:43:01Z</time>
      </trkpt>
      <trkpt lat="45.77048" lon="4.81362">
        <ele>208</ele>
        <time>2015-04-10T11:43:03Z</time>
      </trkpt>
      <trkpt lat="45.77058" lon="4.8136">
        <ele>208</ele>
        <time>2015-04-10T11:43:07Z</time>
      </trkpt>
      <trkpt lat="45.77063" lon="4.81359">
        <ele>209</ele>
        <time>2015-04-10T11:43:09Z</time>
      </trkpt>
      <trkpt lat="45.77069" lon="4.81357">
        <ele>209</ele>
        <time>2015-04-10T11:43:11Z</time>
      </trkpt>
      <trkpt lat="45.77074" lon="4.81356">
        <ele>209</ele>
        <time>2015-04-10T11:43:13Z</time>
      </trkpt>
      <trkpt lat="45.7708" lon="4.81357">
        <ele>209</ele>
        <time>2015-04-10T11:43:15Z</time>
      </trkpt>
      <trkpt lat="45.77085" lon="4.81357">
        <ele>209</ele>
        <time>2015-04-10T11:43:17Z</time>
      </trkpt>
      <trkpt lat="45.77095" lon="4.81356">
        <ele>210</ele>
        <time>2015-04-10T11:43:20Z</time>
      </trkpt>
      <trkpt lat="45.771" lon="4.81355">
        <ele>210</ele>
        <time>2015-04-10T11:43:22Z</time>
      </trkpt>
      <trkpt lat="45.77106" lon="4.81355">
        <ele>210</ele>
        <time>2015-04-10T11:43:24Z</time>
      </trkpt>
      <trkpt lat="45.77113" lon="4.81355">
        <ele>210</ele>
        <time>2015-04-10T11:43:26Z</time>
      </trkpt>
      <trkpt lat="45.77118" lon="4.81353">
        <ele>209</ele>
        <time>2015-04-10T11:43:28Z</time>
      </trkpt>
      <trkpt lat="45.77128" lon="4.81352">
        <ele>207</ele>
        <time>2015-04-10T11:43:31Z</time>
      </trkpt>
      <trkpt lat="45.77133" lon="4.81347">
        <ele>206</ele>
        <time>2015-04-10T11:43:33Z</time>
      </trkpt>
      <trkpt lat="45.77139" lon="4.81343">
        <ele>205</ele>
        <time>2015-04-10T11:43:35Z</time>
      </trkpt>
      <trkpt lat="45.77147" lon="4.81343">
        <ele>204</ele>
        <time>2015-04-10T11:43:37Z</time>
      </trkpt>
      <trkpt lat="45.77153" lon="4.81341">
        <ele>204</ele>
        <time>2015-04-10T11:43:39Z</time>
      </trkpt>
      <trkpt lat="45.77161" lon="4.8134">
        <ele>203</ele>
        <time>2015-04-10T11:43:41Z</time>
      </trkpt>
      <trkpt lat="45.77168" lon="4.81339">
        <ele>202</ele>
        <time>2015-04-10T11:43:43Z</time>
      </trkpt>
      <trkpt lat="45.77176" lon="4.81337">
        <ele>201</ele>
        <time>2015-04-10T11:43:45Z</time>
      </trkpt>
      <trkpt lat="45.77184" lon="4.81335">
        <ele>200</ele>
        <time>2015-04-10T11:43:47Z</time>
      </trkpt>
      <trkpt lat="45.77195" lon="4.81331">
        <ele>199</ele>
        <time>2015-04-10T11:43:50Z</time>
      </trkpt>
      <trkpt lat="45.77199" lon="4.81328">
        <ele>197</ele>
        <time>2015-04-10T11:43:52Z</time>
      </trkpt>
      <trkpt lat="45.77205" lon="4.81326">
        <ele>196</ele>
        <time>2015-04-10T11:43:54Z</time>
      </trkpt>
      <trkpt lat="45.7721" lon="4.81324">
        <ele>195</ele>
        <time>2015-04-10T11:43:56Z</time>
      </trkpt>
      <trkpt lat="45.77217" lon="4.81322">
        <ele>195</ele>
        <time>2015-04-10T11:43:58Z</time>
      </trkpt>
      <trkpt lat="45.77223" lon="4.81319">
        <ele>194</ele>
        <time>2015-04-10T11:44:00Z</time>
      </trkpt>
      <trkpt lat="45.77228" lon="4.81317">
        <ele>193</ele>
        <time>2015-04-10T11:44:02Z</time>
      </trkpt>
      <trkpt lat="45.77235" lon="4.81311">
        <ele>193</ele>
        <time>2015-04-10T11:44:05Z</time>
      </trkpt>
      <trkpt lat="45.77241" lon="4.81308">
        <ele>192</ele>
        <time>2015-04-10T11:44:07Z</time>
      </trkpt>
      <trkpt lat="45.77246" lon="4.81305">
        <ele>191</ele>
        <time>2015-04-10T11:44:09Z</time>
      </trkpt>
      <trkpt lat="45.77251" lon="4.81301">
        <ele>191</ele>
        <time>2015-04-10T11:44:11Z</time>
      </trkpt>
      <trkpt lat="45.77256" lon="4.81295">
        <ele>190</ele>
        <time>2015-04-10T11:44:13Z</time>
      </trkpt>
      <trkpt lat="45.77261" lon="4.81291">
        <ele>189</ele>
        <time>2015-04-10T11:44:15Z</time>
      </trkpt>
      <trkpt lat="45.77266" lon="4.81287">
        <ele>189</ele>
        <time>2015-04-10T11:44:17Z</time>
      </trkpt>
      <trkpt lat="45.77273" lon="4.81282">
        <ele>187</ele>
        <time>2015-04-10T11:44:20Z</time>
      </trkpt>
      <trkpt lat="45.77279" lon="4.81279">
        <ele>186</ele>
        <time>2015-04-10T11:44:22Z</time>
      </trkpt>
      <trkpt lat="45.77285" lon="4.81276">
        <ele>185</ele>
        <time>2015-04-10T11:44:24Z</time>
      </trkpt>
      <trkpt lat="45.7729" lon="4.81273">
        <ele>185</ele>
        <time>2015-04-10T11:44:26Z</time>
      </trkpt>
      <trkpt lat="45.77295" lon="4.81271">
        <ele>184</ele>
        <time>2015-04-10T11:44:28Z</time>
      </trkpt>
      <trkpt lat="45.77303" lon="4.81265">
        <ele>183</ele>
        <time>2015-04-10T11:44:31Z</time>
      </trkpt>
      <trkpt lat="45.77309" lon="4.81261">
        <ele>183</ele>
        <time>2015-04-10T11:44:33Z</time>
      </trkpt>
      <trkpt lat="45.77314" lon="4.81257">
        <ele>183</ele>
        <time>2015-04-10T11:44:35Z</time>
      </trkpt>
      <trkpt lat="45.77318" lon="4.81251">
        <ele>182</ele>
        <time>2015-04-10T11:44:37Z</time>
      </trkpt>
      <trkpt lat="45.77323" lon="4.81245">
        <ele>182</ele>
        <time>2015-04-10T11:44:39Z</time>
      </trkpt>
      <trkpt lat="45.77327" lon="4.81238">
        <ele>181</ele>
        <time>2015-04-10T11:44:41Z</time>
      </trkpt>
      <trkpt lat="45.77332" lon="4.81232">
        <ele>181</ele>
        <time>2015-04-10T11:44:43Z</time>
      </trkpt>
      <trkpt lat="45.77336" lon="4.81226">
        <ele>181</ele>
        <time>2015-04-10T11:44:45Z</time>
      </trkpt>
      <trkpt lat="45.77341" lon="4.81222">
        <ele>181</ele>
        <time>2015-04-10T11:44:47Z</time>
      </trkpt>
      <trkpt lat="45.77348" lon="4.81215">
        <ele>180</ele>
        <time>2015-04-10T11:44:50Z</time>
      </trkpt>
      <trkpt lat="45.77351" lon="4.81211">
        <ele>180</ele>
        <time>2015-04-10T11:44:52Z</time>
      </trkpt>
      <trkpt lat="45.77354" lon="4.81204">
        <ele>180</ele>
        <time>2015-04-10T11:44:54Z</time>
      </trkpt>
      <trkpt lat="45.77356" lon="4.81196">
        <ele>180</ele>
        <time>2015-04-10T11:44:56Z</time>
      </trkpt>
      <trkpt lat="45.77358" lon="4.81189">
        <ele>180</ele>
        <time>2015-04-10T11:44:58Z</time>
      </trkpt>
      <trkpt lat="45.77359" lon="4.81181">
        <ele>179</ele>
        <time>2015-04-10T11:45:00Z</time>
      </trkpt>
      <trkpt lat="45.77363" lon="4.81173">
        <ele>179</ele>
        <time>2015-04-10T11:45:03Z</time>
      </trkpt>
      <trkpt lat="45.77367" lon="4.81168">
        <ele>179</ele>
        <time>2015-04-10T11:45:05Z</time>
      </trkpt>
      <trkpt lat="45.77373" lon="4.81158">
        <ele>179</ele>
        <time>2015-04-10T11:45:09Z</time>
      </trkpt>
      <trkpt lat="45.77376" lon="4.81153">
        <ele>179</ele>
        <time>2015-04-10T11:45:11Z</time>
      </trkpt>
      <trkpt lat="45.77379" lon="4.81147">
        <ele>178</ele>
        <time>2015-04-10T11:45:13Z</time>
      </trkpt>
      <trkpt lat="45.77384" lon="4.81142">
        <ele>178</ele>
        <time>2015-04-10T11:45:15Z</time>
      </trkpt>
      <trkpt lat="45.77387" lon="4.81136">
        <ele>177</ele>
        <time>2015-04-10T11:45:17Z</time>
      </trkpt>
      <trkpt lat="45.77393" lon="4.81127">
        <ele>177</ele>
        <time>2015-04-10T11:45:20Z</time>
      </trkpt>
      <trkpt lat="45.77396" lon="4.81122">
        <ele>177</ele>
        <time>2015-04-10T11:45:22Z</time>
      </trkpt>
      <trkpt lat="45.774" lon="4.81118">
        <ele>176</ele>
        <time>2015-04-10T11:45:24Z</time>
      </trkpt>
      <trkpt lat="45.77404" lon="4.81114">
        <ele>176</ele>
        <time>2015-04-10T11:45:26Z</time>
      </trkpt>
      <trkpt lat="45.77409" lon="4.81106">
        <ele>175</ele>
        <time>2015-04-10T11:45:29Z</time>
      </trkpt>
      <trkpt lat="45.77414" lon="4.81103">
        <ele>174</ele>
        <time>2015-04-10T11:45:31Z</time>
      </trkpt>
      <trkpt lat="45.77418" lon="4.81097">
        <ele>174</ele>
        <time>2015-04-10T11:45:33Z</time>
      </trkpt>
      <trkpt lat="45.77423" lon="4.81096">
        <ele>173</ele>
        <time>2015-04-10T11:45:35Z</time>
      </trkpt>
      <trkpt lat="45.77428" lon="4.81095">
        <ele>173</ele>
        <time>2015-04-10T11:45:37Z</time>
      </trkpt>
      <trkpt lat="45.77433" lon="4.81094">
        <ele>172</ele>
        <time>2015-04-10T11:45:39Z</time>
      </trkpt>
      <trkpt lat="45.77441" lon="4.81087">
        <ele>171</ele>
        <time>2015-04-10T11:45:43Z</time>
      </trkpt>
      <trkpt lat="45.77445" lon="4.81083">
        <ele>171</ele>
        <time>2015-04-10T11:45:45Z</time>
      </trkpt>
      <trkpt lat="45.77451" lon="4.81076">
        <ele>171</ele>
        <time>2015-04-10T11:45:49Z</time>
      </trkpt>
      <trkpt lat="45.77455" lon="4.81072">
        <ele>171</ele>
        <time>2015-04-10T11:45:52Z</time>
      </trkpt>
      <trkpt lat="45.77459" lon="4.81068">
        <ele>171</ele>
        <time>2015-04-10T11:45:56Z</time>
      </trkpt>
      <trkpt lat="45.77465" lon="4.81064">
        <ele>171</ele>
        <time>2015-04-10T11:46:01Z</time>
      </trkpt>
      <trkpt lat="45.7747" lon="4.81054">
        <ele>171</ele>
        <time>2015-04-10T11:46:05Z</time>
      </trkpt>
      <trkpt lat="45.7747" lon="4.81046">
        <ele>171</ele>
        <time>2015-04-10T11:46:07Z</time>
      </trkpt>
      <trkpt lat="45.77472" lon="4.81038">
        <ele>171</ele>
        <time>2015-04-10T11:46:09Z</time>
      </trkpt>
      <trkpt lat="45.77473" lon="4.81032">
        <ele>171</ele>
        <time>2015-04-10T11:46:11Z</time>
      </trkpt>
      <trkpt lat="45.77474" lon="4.81025">
        <ele>172</ele>
        <time>2015-04-10T11:46:13Z</time>
      </trkpt>
      <trkpt lat="45.77475" lon="4.81018">
        <ele>172</ele>
        <time>2015-04-10T11:46:15Z</time>
      </trkpt>
      <trkpt lat="45.77475" lon="4.81005">
        <ele>172</ele>
        <time>2015-04-10T11:46:19Z</time>
      </trkpt>
      <trkpt lat="45.77477" lon="4.80992">
        <ele>172</ele>
        <time>2015-04-10T11:46:22Z</time>
      </trkpt>
      <trkpt lat="45.77478" lon="4.80983">
        <ele>172</ele>
        <time>2015-04-10T11:46:24Z</time>
      </trkpt>
      <trkpt lat="45.77478" lon="4.80974">
        <ele>172</ele>
        <time>2015-04-10T11:46:26Z</time>
      </trkpt>
      <trkpt lat="45.77478" lon="4.80966">
        <ele>173</ele>
        <time>2015-04-10T11:46:28Z</time>
      </trkpt>
      <trkpt lat="45.7748" lon="4.8096">
        <ele>173</ele>
        <time>2015-04-10T11:46:31Z</time>
      </trkpt>
      <trkpt lat="45.77481" lon="4.80952">
        <ele>173</ele>
        <time>2015-04-10T11:46:33Z</time>
      </trkpt>
      <trkpt lat="45.77482" lon="4.80945">
        <ele>173</ele>
        <time>2015-04-10T11:46:35Z</time>
      </trkpt>
      <trkpt lat="45.77482" lon="4.80936">
        <ele>173</ele>
        <time>2015-04-10T11:46:37Z</time>
      </trkpt>
      <trkpt lat="45.77483" lon="4.80929">
        <ele>174</ele>
        <time>2015-04-10T11:46:39Z</time>
      </trkpt>
      <trkpt lat="45.77485" lon="4.80915">
        <ele>174</ele>
        <time>2015-04-10T11:46:43Z</time>
      </trkpt>
      <trkpt lat="45.77485" lon="4.80908">
        <ele>174</ele>
        <time>2015-04-10T11:46:45Z</time>
      </trkpt>
      <trkpt lat="45.77486" lon="4.80896">
        <ele>173</ele>
        <time>2015-04-10T11:46:49Z</time>
      </trkpt>
      <trkpt lat="45.77483" lon="4.80886">
        <ele>173</ele>
        <time>2015-04-10T11:46:52Z</time>
      </trkpt>
      <trkpt lat="45.7748" lon="4.80879">
        <ele>173</ele>
        <time>2015-04-10T11:46:54Z</time>
      </trkpt>
      <trkpt lat="45.77474" lon="4.80867">
        <ele>175</ele>
        <time>2015-04-10T11:46:56Z</time>
      </trkpt>
      <trkpt lat="45.77469" lon="4.80863">
        <ele>175</ele>
        <time>2015-04-10T11:46:58Z</time>
      </trkpt>
      <trkpt lat="45.77461" lon="4.80868">
        <ele>175</ele>
        <time>2015-04-10T11:47:02Z</time>
      </trkpt>
      <trkpt lat="45.77454" lon="4.80873">
        <ele>175</ele>
        <time>2015-04-10T11:47:05Z</time>
      </trkpt>
      <trkpt lat="45.77448" lon="4.80878">
        <ele>175</ele>
        <time>2015-04-10T11:47:07Z</time>
      </trkpt>
      <trkpt lat="45.77442" lon="4.80882">
        <ele>174</ele>
        <time>2015-04-10T11:47:09Z</time>
      </trkpt>
      <trkpt lat="45.77437" lon="4.80887">
        <ele>174</ele>
        <time>2015-04-10T11:47:11Z</time>
      </trkpt>
      <trkpt lat="45.77432" lon="4.80891">
        <ele>174</ele>
        <time>2015-04-10T11:47:13Z</time>
      </trkpt>
      <trkpt lat="45.77426" lon="4.80893">
        <ele>174</ele>
        <time>2015-04-10T11:47:15Z</time>
      </trkpt>
      <trkpt lat="45.77421" lon="4.80894">
        <ele>174</ele>
        <time>2015-04-10T11:47:17Z</time>
      </trkpt>
      <trkpt lat="45.77416" lon="4.80893">
        <ele>174</ele>
        <time>2015-04-10T11:47:19Z</time>
      </trkpt>
      <trkpt lat="45.77408" lon="4.80892">
        <ele>174</ele>
        <time>2015-04-10T11:47:22Z</time>
      </trkpt>
      <trkpt lat="45.77403" lon="4.80892">
        <ele>174</ele>
        <time>2015-04-10T11:47:24Z</time>
      </trkpt>
      <trkpt lat="45.77397" lon="4.80886">
        <ele>174</ele>
        <time>2015-04-10T11:47:28Z</time>
      </trkpt>
      <trkpt lat="45.77392" lon="4.80885">
        <ele>174</ele>
        <time>2015-04-10T11:47:30Z</time>
      </trkpt>
      <trkpt lat="45.77387" lon="4.8088">
        <ele>174</ele>
        <time>2015-04-10T11:47:33Z</time>
      </trkpt>
      <trkpt lat="45.77376" lon="4.80877">
        <ele>173</ele>
        <time>2015-04-10T11:47:37Z</time>
      </trkpt>
      <trkpt lat="45.77369" lon="4.80875">
        <ele>173</ele>
        <time>2015-04-10T11:47:43Z</time>
      </trkpt>
      <trkpt lat="45.77363" lon="4.80872">
        <ele>173</ele>
        <time>2015-04-10T11:47:47Z</time>
      </trkpt>
      <trkpt lat="45.7736" lon="4.80864">
        <ele>172</ele>
        <time>2015-04-10T11:47:50Z</time>
      </trkpt>
      <trkpt lat="45.77356" lon="4.8085">
        <ele>172</ele>
        <time>2015-04-10T11:47:54Z</time>
      </trkpt>
      <trkpt lat="45.77351" lon="4.80846">
        <ele>171</ele>
        <time>2015-04-10T11:47:58Z</time>
      </trkpt>
      <trkpt lat="45.77342" lon="4.80837">
        <ele>171</ele>
        <time>2015-04-10T11:48:05Z</time>
      </trkpt>
      <trkpt lat="45.77336" lon="4.80841">
        <ele>171</ele>
        <time>2015-04-10T11:48:09Z</time>
      </trkpt>
      <trkpt lat="45.77327" lon="4.80836">
        <ele>171</ele>
        <time>2015-04-10T11:48:13Z</time>
      </trkpt>
      <trkpt lat="45.77319" lon="4.80834">
        <ele>171</ele>
        <time>2015-04-10T11:48:15Z</time>
      </trkpt>
      <trkpt lat="45.77314" lon="4.80838">
        <ele>171</ele>
        <time>2015-04-10T11:48:18Z</time>
      </trkpt>
      <trkpt lat="45.77306" lon="4.80836">
        <ele>171</ele>
        <time>2015-04-10T11:48:22Z</time>
      </trkpt>
      <trkpt lat="45.77299" lon="4.80839">
        <ele>171</ele>
        <time>2015-04-10T11:48:26Z</time>
      </trkpt>
      <trkpt lat="45.77293" lon="4.80841">
        <ele>172</ele>
        <time>2015-04-10T11:48:28Z</time>
      </trkpt>
      <trkpt lat="45.77286" lon="4.80844">
        <ele>172</ele>
        <time>2015-04-10T11:48:32Z</time>
      </trkpt>
      <trkpt lat="45.77277" lon="4.80846">
        <ele>172</ele>
        <time>2015-04-10T11:48:35Z</time>
      </trkpt>
      <trkpt lat="45.77272" lon="4.80846">
        <ele>172</ele>
        <time>2015-04-10T11:48:37Z</time>
      </trkpt>
      <trkpt lat="45.77266" lon="4.80846">
        <ele>173</ele>
        <time>2015-04-10T11:48:39Z</time>
      </trkpt>
      <trkpt lat="45.77261" lon="4.80847">
        <ele>173</ele>
        <time>2015-04-10T11:48:41Z</time>
      </trkpt>
      <trkpt lat="45.77253" lon="4.80848">
        <ele>173</ele>
        <time>2015-04-10T11:48:45Z</time>
      </trkpt>
      <trkpt lat="45.77245" lon="4.80852">
        <ele>173</ele>
        <time>2015-04-10T11:48:49Z</time>
      </trkpt>
      <trkpt lat="45.7724" lon="4.80853">
        <ele>173</ele>
        <time>2015-04-10T11:48:52Z</time>
      </trkpt>
      <trkpt lat="45.77235" lon="4.80853">
        <ele>173</ele>
        <time>2015-04-10T11:48:56Z</time>
      </trkpt>
      <trkpt lat="45.7723" lon="4.80852">
        <ele>173</ele>
        <time>2015-04-10T11:48:59Z</time>
      </trkpt>
      <trkpt lat="45.77224" lon="4.80854">
        <ele>173</ele>
        <time>2015-04-10T11:49:01Z</time>
      </trkpt>
      <trkpt lat="45.77219" lon="4.80856">
        <ele>173</ele>
        <time>2015-04-10T11:49:03Z</time>
      </trkpt>
      <trkpt lat="45.77214" lon="4.80856">
        <ele>173</ele>
        <time>2015-04-10T11:49:06Z</time>
      </trkpt>
      <trkpt lat="45.7721" lon="4.80864">
        <ele>173</ele>
        <time>2015-04-10T11:49:11Z</time>
      </trkpt>
      <trkpt lat="45.77207" lon="4.80869">
        <ele>173</ele>
        <time>2015-04-10T11:49:15Z</time>
      </trkpt>
      <trkpt lat="45.77203" lon="4.80875">
        <ele>173</ele>
        <time>2015-04-10T11:49:19Z</time>
      </trkpt>
      <trkpt lat="45.77198" lon="4.80882">
        <ele>174</ele>
        <time>2015-04-10T11:49:22Z</time>
      </trkpt>
      <trkpt lat="45.77194" lon="4.80885">
        <ele>174</ele>
        <time>2015-04-10T11:49:26Z</time>
      </trkpt>
      <trkpt lat="45.7719" lon="4.80889">
        <ele>175</ele>
        <time>2015-04-10T11:49:30Z</time>
      </trkpt>
      <trkpt lat="45.77185" lon="4.80896">
        <ele>176</ele>
        <time>2015-04-10T11:49:37Z</time>
      </trkpt>
      <trkpt lat="45.77186" lon="4.80903">
        <ele>177</ele>
        <time>2015-04-10T11:49:45Z</time>
      </trkpt>
      <trkpt lat="45.77187" lon="4.8091">
        <ele>179</ele>
        <time>2015-04-10T11:49:56Z</time>
      </trkpt>
      <trkpt lat="45.77189" lon="4.80916">
        <ele>181</ele>
        <time>2015-04-10T11:50:02Z</time>
      </trkpt>
      <trkpt lat="45.77196" lon="4.80919">
        <ele>181</ele>
        <time>2015-04-10T11:50:07Z</time>
      </trkpt>
      <trkpt lat="45.772" lon="4.80922">
        <ele>182</ele>
        <time>2015-04-10T11:50:09Z</time>
      </trkpt>
      <trkpt lat="45.77207" lon="4.80923">
        <ele>183</ele>
        <time>2015-04-10T11:50:13Z</time>
      </trkpt>
      <trkpt lat="45.77213" lon="4.80921">
        <ele>184</ele>
        <time>2015-04-10T11:50:17Z</time>
      </trkpt>
      <trkpt lat="45.77218" lon="4.80922">
        <ele>185</ele>
        <time>2015-04-10T11:50:20Z</time>
      </trkpt>
      <trkpt lat="45.77224" lon="4.80923">
        <ele>185</ele>
        <time>2015-04-10T11:50:24Z</time>
      </trkpt>
      <trkpt lat="45.77232" lon="4.80923">
        <ele>186</ele>
        <time>2015-04-10T11:50:28Z</time>
      </trkpt>
      <trkpt lat="45.77237" lon="4.80923">
        <ele>187</ele>
        <time>2015-04-10T11:50:32Z</time>
      </trkpt>
      <trkpt lat="45.77242" lon="4.80921">
        <ele>188</ele>
        <time>2015-04-10T11:50:35Z</time>
      </trkpt>
      <trkpt lat="45.77246" lon="4.80918">
        <ele>191</ele>
        <time>2015-04-10T11:50:39Z</time>
      </trkpt>
      <trkpt lat="45.7725" lon="4.80912">
        <ele>196</ele>
        <time>2015-04-10T11:50:45Z</time>
      </trkpt>
      <trkpt lat="45.77254" lon="4.80918">
        <ele>202</ele>
        <time>2015-04-10T11:50:56Z</time>
      </trkpt>
      <trkpt lat="45.77259" lon="4.80923">
        <ele>205</ele>
        <time>2015-04-10T11:51:00Z</time>
      </trkpt>
      <trkpt lat="45.77259" lon="4.80933">
        <ele>207</ele>
        <time>2015-04-10T11:51:05Z</time>
      </trkpt>
      <trkpt lat="45.77264" lon="4.80935">
        <ele>209</ele>
        <time>2015-04-10T11:51:09Z</time>
      </trkpt>
      <trkpt lat="45.77268" lon="4.80938">
        <ele>209</ele>
        <time>2015-04-10T11:51:13Z</time>
      </trkpt>
      <trkpt lat="45.77263" lon="4.80941">
        <ele>211</ele>
        <time>2015-04-10T11:51:22Z</time>
      </trkpt>
      <trkpt lat="45.77257" lon="4.80944">
        <ele>211</ele>
        <time>2015-04-10T11:51:26Z</time>
      </trkpt>
      <trkpt lat="45.77251" lon="4.80945">
        <ele>211</ele>
        <time>2015-04-10T11:51:30Z</time>
      </trkpt>
      <trkpt lat="45.77246" lon="4.80946">
        <ele>211</ele>
        <time>2015-04-10T11:51:32Z</time>
      </trkpt>
      <trkpt lat="45.77237" lon="4.80951">
        <ele>211</ele>
        <time>2015-04-10T11:51:35Z</time>
      </trkpt>
      <trkpt lat="45.7723" lon="4.80955">
        <ele>211</ele>
        <time>2015-04-10T11:51:39Z</time>
      </trkpt>
      <trkpt lat="45.77219" lon="4.80959">
        <ele>212</ele>
        <time>2015-04-10T11:51:43Z</time>
      </trkpt>
      <trkpt lat="45.77213" lon="4.80959">
        <ele>212</ele>
        <time>2015-04-10T11:51:45Z</time>
      </trkpt>
      <trkpt lat="45.77205" lon="4.80965">
        <ele>213</ele>
        <time>2015-04-10T11:51:47Z</time>
      </trkpt>
      <trkpt lat="45.77197" lon="4.80968">
        <ele>213</ele>
        <time>2015-04-10T11:51:49Z</time>
      </trkpt>
      <trkpt lat="45.77193" lon="4.8097">
        <ele>214</ele>
        <time>2015-04-10T11:51:50Z</time>
      </trkpt>
      <trkpt lat="45.77184" lon="4.80968">
        <ele>215</ele>
        <time>2015-04-10T11:51:54Z</time>
      </trkpt>
      <trkpt lat="45.77177" lon="4.80963">
        <ele>217</ele>
        <time>2015-04-10T11:51:58Z</time>
      </trkpt>
      <trkpt lat="45.77171" lon="4.80962">
        <ele>217</ele>
        <time>2015-04-10T11:52:00Z</time>
      </trkpt>
      <trkpt lat="45.77166" lon="4.80961">
        <ele>218</ele>
        <time>2015-04-10T11:52:02Z</time>
      </trkpt>
      <trkpt lat="45.7716" lon="4.80961">
        <ele>219</ele>
        <time>2015-04-10T11:52:05Z</time>
      </trkpt>
      <trkpt lat="45.77155" lon="4.8096">
        <ele>219</ele>
        <time>2015-04-10T11:52:07Z</time>
      </trkpt>
      <trkpt lat="45.7715" lon="4.80959">
        <ele>220</ele>
        <time>2015-04-10T11:52:09Z</time>
      </trkpt>
      <trkpt lat="45.77145" lon="4.80959">
        <ele>220</ele>
        <time>2015-04-10T11:52:11Z</time>
      </trkpt>
      <trkpt lat="45.77139" lon="4.80962">
        <ele>221</ele>
        <time>2015-04-10T11:52:15Z</time>
      </trkpt>
      <trkpt lat="45.77132" lon="4.80965">
        <ele>222</ele>
        <time>2015-04-10T11:52:19Z</time>
      </trkpt>
      <trkpt lat="45.77126" lon="4.80964">
        <ele>223</ele>
        <time>2015-04-10T11:52:22Z</time>
      </trkpt>
      <trkpt lat="45.77121" lon="4.80967">
        <ele>224</ele>
        <time>2015-04-10T11:52:26Z</time>
      </trkpt>
      <trkpt lat="45.77116" lon="4.80967">
        <ele>225</ele>
        <time>2015-04-10T11:52:30Z</time>
      </trkpt>
      <trkpt lat="45.7711" lon="4.80963">
        <ele>225</ele>
        <time>2015-04-10T11:52:32Z</time>
      </trkpt>
      <trkpt lat="45.77105" lon="4.8096">
        <ele>226</ele>
        <time>2015-04-10T11:52:35Z</time>
      </trkpt>
      <trkpt lat="45.77098" lon="4.80958">
        <ele>227</ele>
        <time>2015-04-10T11:52:39Z</time>
      </trkpt>
      <trkpt lat="45.77091" lon="4.80955">
        <ele>228</ele>
        <time>2015-04-10T11:52:43Z</time>
      </trkpt>
      <trkpt lat="45.77084" lon="4.80955">
        <ele>228</ele>
        <time>2015-04-10T11:52:47Z</time>
      </trkpt>
      <trkpt lat="45.77079" lon="4.80954">
        <ele>229</ele>
        <time>2015-04-10T11:52:49Z</time>
      </trkpt>
      <trkpt lat="45.77074" lon="4.80951">
        <ele>229</ele>
        <time>2015-04-10T11:52:52Z</time>
      </trkpt>
      <trkpt lat="45.77069" lon="4.8095">
        <ele>229</ele>
        <time>2015-04-10T11:52:54Z</time>
      </trkpt>
      <trkpt lat="45.77061" lon="4.80951">
        <ele>230</ele>
        <time>2015-04-10T11:52:58Z</time>
      </trkpt>
      <trkpt lat="45.77052" lon="4.80951">
        <ele>231</ele>
        <time>2015-04-10T11:53:02Z</time>
      </trkpt>
      <trkpt lat="45.77045" lon="4.80947">
        <ele>232</ele>
        <time>2015-04-10T11:53:05Z</time>
      </trkpt>
      <trkpt lat="45.7704" lon="4.80944">
        <ele>233</ele>
        <time>2015-04-10T11:53:07Z</time>
      </trkpt>
      <trkpt lat="45.77035" lon="4.8094">
        <ele>233</ele>
        <time>2015-04-10T11:53:09Z</time>
      </trkpt>
      <trkpt lat="45.77029" lon="4.80936">
        <ele>234</ele>
        <time>2015-04-10T11:53:11Z</time>
      </trkpt>
      <trkpt lat="45.77025" lon="4.80932">
        <ele>234</ele>
        <time>2015-04-10T11:53:13Z</time>
      </trkpt>
      <trkpt lat="45.77021" lon="4.80929">
        <ele>235</ele>
        <time>2015-04-10T11:53:15Z</time>
      </trkpt>
      <trkpt lat="45.77016" lon="4.80926">
        <ele>236</ele>
        <time>2015-04-10T11:53:17Z</time>
      </trkpt>
      <trkpt lat="45.77012" lon="4.80924">
        <ele>236</ele>
        <time>2015-04-10T11:53:19Z</time>
      </trkpt>
      <trkpt lat="45.77006" lon="4.80922">
        <ele>237</ele>
        <time>2015-04-10T11:53:22Z</time>
      </trkpt>
      <trkpt lat="45.77002" lon="4.80927">
        <ele>238</ele>
        <time>2015-04-10T11:53:26Z</time>
      </trkpt>
      <trkpt lat="45.76999" lon="4.80939">
        <ele>239</ele>
        <time>2015-04-10T11:53:32Z</time>
      </trkpt>
      <trkpt lat="45.76998" lon="4.80946">
        <ele>239</ele>
        <time>2015-04-10T11:53:35Z</time>
      </trkpt>
      <trkpt lat="45.77" lon="4.80954">
        <ele>239</ele>
        <time>2015-04-10T11:53:39Z</time>
      </trkpt>
      <trkpt lat="45.77001" lon="4.80962">
        <ele>240</ele>
        <time>2015-04-10T11:53:43Z</time>
      </trkpt>
      <trkpt lat="45.77005" lon="4.8097">
        <ele>241</ele>
        <time>2015-04-10T11:53:47Z</time>
      </trkpt>
      <trkpt lat="45.77015" lon="4.80968">
        <ele>242</ele>
        <time>2015-04-10T11:53:50Z</time>
      </trkpt>
      <trkpt lat="45.77015" lon="4.80979">
        <ele>241</ele>
        <time>2015-04-10T11:53:54Z</time>
      </trkpt>
      <trkpt lat="45.77012" lon="4.80985">
        <ele>241</ele>
        <time>2015-04-10T11:53:56Z</time>
      </trkpt>
      <trkpt lat="45.77007" lon="4.80992">
        <ele>241</ele>
        <time>2015-04-10T11:53:58Z</time>
      </trkpt>
      <trkpt lat="45.77002" lon="4.80997">
        <ele>241</ele>
        <time>2015-04-10T11:54:00Z</time>
      </trkpt>
      <trkpt lat="45.76997" lon="4.81">
        <ele>242</ele>
        <time>2015-04-10T11:54:02Z</time>
      </trkpt>
      <trkpt lat="45.76992" lon="4.81004">
        <ele>242</ele>
        <time>2015-04-10T11:54:05Z</time>
      </trkpt>
      <trkpt lat="45.76984" lon="4.81005">
        <ele>242</ele>
        <time>2015-04-10T11:54:09Z</time>
      </trkpt>
      <trkpt lat="45.76978" lon="4.81005">
        <ele>243</ele>
        <time>2015-04-10T11:54:11Z</time>
      </trkpt>
      <trkpt lat="45.7697" lon="4.81005">
        <ele>244</ele>
        <time>2015-04-10T11:54:15Z</time>
      </trkpt>
      <trkpt lat="45.76963" lon="4.81006">
        <ele>244</ele>
        <time>2015-04-10T11:54:19Z</time>
      </trkpt>
      <trkpt lat="45.76959" lon="4.81007">
        <ele>245</ele>
        <time>2015-04-10T11:54:22Z</time>
      </trkpt>
      <trkpt lat="45.76952" lon="4.81009">
        <ele>245</ele>
        <time>2015-04-10T11:54:26Z</time>
      </trkpt>
      <trkpt lat="45.76946" lon="4.81008">
        <ele>246</ele>
        <time>2015-04-10T11:54:30Z</time>
      </trkpt>
      <trkpt lat="45.76938" lon="4.8101">
        <ele>248</ele>
        <time>2015-04-10T11:54:33Z</time>
      </trkpt>
      <trkpt lat="45.76931" lon="4.81009">
        <ele>248</ele>
        <time>2015-04-10T11:54:35Z</time>
      </trkpt>
      <trkpt lat="45.76926" lon="4.81005">
        <ele>249</ele>
        <time>2015-04-10T11:54:37Z</time>
      </trkpt>
      <trkpt lat="45.76919" lon="4.80998">
        <ele>250</ele>
        <time>2015-04-10T11:54:41Z</time>
      </trkpt>
      <trkpt lat="45.76915" lon="4.80993">
        <ele>250</ele>
        <time>2015-04-10T11:54:43Z</time>
      </trkpt>
      <trkpt lat="45.76909" lon="4.80992">
        <ele>251</ele>
        <time>2015-04-10T11:54:47Z</time>
      </trkpt>
      <trkpt lat="45.76902" lon="4.80987">
        <ele>252</ele>
        <time>2015-04-10T11:54:51Z</time>
      </trkpt>
      <trkpt lat="45.76897" lon="4.80987">
        <ele>253</ele>
        <time>2015-04-10T11:54:54Z</time>
      </trkpt>
      <trkpt lat="45.76891" lon="4.80982">
        <ele>254</ele>
        <time>2015-04-10T11:54:58Z</time>
      </trkpt>
      <trkpt lat="45.76886" lon="4.80981">
        <ele>254</ele>
        <time>2015-04-10T11:55:00Z</time>
      </trkpt>
      <trkpt lat="45.76881" lon="4.80979">
        <ele>255</ele>
        <time>2015-04-10T11:55:03Z</time>
      </trkpt>
      <trkpt lat="45.76877" lon="4.80974">
        <ele>256</ele>
        <time>2015-04-10T11:55:05Z</time>
      </trkpt>
      <trkpt lat="45.7687" lon="4.8097">
        <ele>257</ele>
        <time>2015-04-10T11:55:09Z</time>
      </trkpt>
      <trkpt lat="45.76864" lon="4.80969">
        <ele>258</ele>
        <time>2015-04-10T11:55:13Z</time>
      </trkpt>
      <trkpt lat="45.76859" lon="4.80968">
        <ele>258</ele>
        <time>2015-04-10T11:55:15Z</time>
      </trkpt>
      <trkpt lat="45.76853" lon="4.80964">
        <ele>259</ele>
        <time>2015-04-10T11:55:19Z</time>
      </trkpt>
      <trkpt lat="45.76846" lon="4.8096">
        <ele>261</ele>
        <time>2015-04-10T11:55:24Z</time>
      </trkpt>
      <trkpt lat="45.76838" lon="4.80956">
        <ele>262</ele>
        <time>2015-04-10T11:55:28Z</time>
      </trkpt>
      <trkpt lat="45.76833" lon="4.80954">
        <ele>263</ele>
        <time>2015-04-10T11:55:32Z</time>
      </trkpt>
      <trkpt lat="45.76827" lon="4.80949">
        <ele>264</ele>
        <time>2015-04-10T11:55:37Z</time>
      </trkpt>
      <trkpt lat="45.7682" lon="4.8095">
        <ele>265</ele>
        <time>2015-04-10T11:55:41Z</time>
      </trkpt>
      <trkpt lat="45.76811" lon="4.80949">
        <ele>266</ele>
        <time>2015-04-10T11:55:45Z</time>
      </trkpt>
      <trkpt lat="45.76805" lon="4.80948">
        <ele>267</ele>
        <time>2015-04-10T11:55:49Z</time>
      </trkpt>
      <trkpt lat="45.76798" lon="4.80947">
        <ele>268</ele>
        <time>2015-04-10T11:55:54Z</time>
      </trkpt>
      <trkpt lat="45.76793" lon="4.80949">
        <ele>269</ele>
        <time>2015-04-10T11:55:56Z</time>
      </trkpt>
      <trkpt lat="45.76787" lon="4.80953">
        <ele>269</ele>
        <time>2015-04-10T11:55:58Z</time>
      </trkpt>
      <trkpt lat="45.76783" lon="4.80954">
        <ele>269</ele>
        <time>2015-04-10T11:56:00Z</time>
      </trkpt>
      <trkpt lat="45.76778" lon="4.80956">
        <ele>270</ele>
        <time>2015-04-10T11:56:02Z</time>
      </trkpt>
      <trkpt lat="45.76773" lon="4.80952">
        <ele>270</ele>
        <time>2015-04-10T11:56:05Z</time>
      </trkpt>
      <trkpt lat="45.76765" lon="4.8095">
        <ele>271</ele>
        <time>2015-04-10T11:56:09Z</time>
      </trkpt>
      <trkpt lat="45.76759" lon="4.80951">
        <ele>272</ele>
        <time>2015-04-10T11:56:11Z</time>
      </trkpt>
      <trkpt lat="45.76754" lon="4.80952">
        <ele>272</ele>
        <time>2015-04-10T11:56:13Z</time>
      </trkpt>
      <trkpt lat="45.76748" lon="4.80946">
        <ele>274</ele>
        <time>2015-04-10T11:56:17Z</time>
      </trkpt>
      <trkpt lat="45.76743" lon="4.80946">
        <ele>274</ele>
        <time>2015-04-10T11:56:19Z</time>
      </trkpt>
      <trkpt lat="45.76737" lon="4.80948">
        <ele>275</ele>
        <time>2015-04-10T11:56:22Z</time>
      </trkpt>
      <trkpt lat="45.76732" lon="4.8095">
        <ele>275</ele>
        <time>2015-04-10T11:56:24Z</time>
      </trkpt>
      <trkpt lat="45.76724" lon="4.80952">
        <ele>276</ele>
        <time>2015-04-10T11:56:28Z</time>
      </trkpt>
      <trkpt lat="45.76716" lon="4.80953">
        <ele>277</ele>
        <time>2015-04-10T11:56:33Z</time>
      </trkpt>
      <trkpt lat="45.76712" lon="4.80958">
        <ele>278</ele>
        <time>2015-04-10T11:56:35Z</time>
      </trkpt>
      <trkpt lat="45.76704" lon="4.80959">
        <ele>278</ele>
        <time>2015-04-10T11:56:39Z</time>
      </trkpt>
      <trkpt lat="45.76698" lon="4.80951">
        <ele>279</ele>
        <time>2015-04-10T11:56:41Z</time>
      </trkpt>
      <trkpt lat="45.76691" lon="4.80949">
        <ele>280</ele>
        <time>2015-04-10T11:56:45Z</time>
      </trkpt>
      <trkpt lat="45.76686" lon="4.80949">
        <ele>281</ele>
        <time>2015-04-10T11:56:48Z</time>
      </trkpt>
      <trkpt lat="45.76681" lon="4.8095">
        <ele>281</ele>
        <time>2015-04-10T11:56:50Z</time>
      </trkpt>
      <trkpt lat="45.76674" lon="4.80948">
        <ele>282</ele>
        <time>2015-04-10T11:56:54Z</time>
      </trkpt>
      <trkpt lat="45.76668" lon="4.80938">
        <ele>282</ele>
        <time>2015-04-10T11:56:58Z</time>
      </trkpt>
      <trkpt lat="45.76664" lon="4.80935">
        <ele>282</ele>
        <time>2015-04-10T11:57:02Z</time>
      </trkpt>
      <trkpt lat="45.76657" lon="4.8094">
        <ele>283</ele>
        <time>2015-04-10T11:57:07Z</time>
      </trkpt>
      <trkpt lat="45.76654" lon="4.80948">
        <ele>284</ele>
        <time>2015-04-10T11:57:11Z</time>
      </trkpt>
      <trkpt lat="45.7665" lon="4.80958">
        <ele>285</ele>
        <time>2015-04-10T11:57:15Z</time>
      </trkpt>
      <trkpt lat="45.76646" lon="4.8097">
        <ele>286</ele>
        <time>2015-04-10T11:57:19Z</time>
      </trkpt>
      <trkpt lat="45.76644" lon="4.80975">
        <ele>287</ele>
        <time>2015-04-10T11:57:22Z</time>
      </trkpt>
      <trkpt lat="45.76639" lon="4.80977">
        <ele>287</ele>
        <time>2015-04-10T11:57:24Z</time>
      </trkpt>
      <trkpt lat="45.76634" lon="4.80977">
        <ele>288</ele>
        <time>2015-04-10T11:57:26Z</time>
      </trkpt>
      <trkpt lat="45.76629" lon="4.80974">
        <ele>289</ele>
        <time>2015-04-10T11:57:28Z</time>
      </trkpt>
      <trkpt lat="45.76623" lon="4.80976">
        <ele>289</ele>
        <time>2015-04-10T11:57:30Z</time>
      </trkpt>
      <trkpt lat="45.76615" lon="4.80983">
        <ele>290</ele>
        <time>2015-04-10T11:57:33Z</time>
      </trkpt>
      <trkpt lat="45.76611" lon="4.80986">
        <ele>291</ele>
        <time>2015-04-10T11:57:35Z</time>
      </trkpt>
      <trkpt lat="45.76605" lon="4.80994">
        <ele>292</ele>
        <time>2015-04-10T11:57:39Z</time>
      </trkpt>
      <trkpt lat="45.76601" lon="4.80999">
        <ele>293</ele>
        <time>2015-04-10T11:57:41Z</time>
      </trkpt>
      <trkpt lat="45.766" lon="4.81009">
        <ele>293</ele>
        <time>2015-04-10T11:57:43Z</time>
      </trkpt>
      <trkpt lat="45.76597" lon="4.81016">
        <ele>294</ele>
        <time>2015-04-10T11:57:45Z</time>
      </trkpt>
      <trkpt lat="45.76593" lon="4.81023">
        <ele>294</ele>
        <time>2015-04-10T11:57:47Z</time>
      </trkpt>
      <trkpt lat="45.76589" lon="4.81031">
        <ele>295</ele>
        <time>2015-04-10T11:57:49Z</time>
      </trkpt>
      <trkpt lat="45.76585" lon="4.81036">
        <ele>296</ele>
        <time>2015-04-10T11:57:51Z</time>
      </trkpt>
      <trkpt lat="45.7658" lon="4.81037">
        <ele>297</ele>
        <time>2015-04-10T11:57:56Z</time>
      </trkpt>
      <trkpt lat="45.76574" lon="4.81035">
        <ele>298</ele>
        <time>2015-04-10T11:58:00Z</time>
      </trkpt>
      <trkpt lat="45.7657" lon="4.81036">
        <ele>299</ele>
        <time>2015-04-10T11:58:05Z</time>
      </trkpt>
      <trkpt lat="45.76563" lon="4.81041">
        <ele>300</ele>
        <time>2015-04-10T11:58:09Z</time>
      </trkpt>
      <trkpt lat="45.76556" lon="4.81039">
        <ele>301</ele>
        <time>2015-04-10T11:58:11Z</time>
      </trkpt>
      <trkpt lat="45.7655" lon="4.8104">
        <ele>302</ele>
        <time>2015-04-10T11:58:13Z</time>
      </trkpt>
      <trkpt lat="45.76543" lon="4.81043">
        <ele>302</ele>
        <time>2015-04-10T11:58:15Z</time>
      </trkpt>
      <trkpt lat="45.76539" lon="4.81046">
        <ele>304</ele>
        <time>2015-04-10T11:58:19Z</time>
      </trkpt>
      <trkpt lat="45.76533" lon="4.81052">
        <ele>305</ele>
        <time>2015-04-10T11:58:24Z</time>
      </trkpt>
      <trkpt lat="45.76527" lon="4.81056">
        <ele>307</ele>
        <time>2015-04-10T11:58:30Z</time>
      </trkpt>
      <trkpt lat="45.76522" lon="4.81063">
        <ele>308</ele>
        <time>2015-04-10T11:58:33Z</time>
      </trkpt>
      <trkpt lat="45.76518" lon="4.81068">
        <ele>308</ele>
        <time>2015-04-10T11:58:35Z</time>
      </trkpt>
      <trkpt lat="45.76514" lon="4.81074">
        <ele>309</ele>
        <time>2015-04-10T11:58:39Z</time>
      </trkpt>
      <trkpt lat="45.76512" lon="4.81082">
        <ele>310</ele>
        <time>2015-04-10T11:58:43Z</time>
      </trkpt>
      <trkpt lat="45.76509" lon="4.81087">
        <ele>311</ele>
        <time>2015-04-10T11:58:45Z</time>
      </trkpt>
      <trkpt lat="45.76505" lon="4.81094">
        <ele>311</ele>
        <time>2015-04-10T11:58:47Z</time>
      </trkpt>
      <trkpt lat="45.76508" lon="4.81102">
        <ele>311</ele>
        <time>2015-04-10T11:58:49Z</time>
      </trkpt>
      <trkpt lat="45.76503" lon="4.81107">
        <ele>311</ele>
        <time>2015-04-10T11:58:54Z</time>
      </trkpt>
      <trkpt lat="45.76499" lon="4.81114">
        <ele>311</ele>
        <time>2015-04-10T11:58:58Z</time>
      </trkpt>
      <trkpt lat="45.76497" lon="4.81106">
        <ele>313</ele>
        <time>2015-04-10T11:59:05Z</time>
      </trkpt>
      <trkpt lat="45.76489" lon="4.81098">
        <ele>313</ele>
        <time>2015-04-10T11:59:11Z</time>
      </trkpt>
      <trkpt lat="45.76481" lon="4.81092">
        <ele>314</ele>
        <time>2015-04-10T11:59:15Z</time>
      </trkpt>
      <trkpt lat="45.76478" lon="4.81083">
        <ele>314</ele>
        <time>2015-04-10T11:59:19Z</time>
      </trkpt>
      <trkpt lat="45.76473" lon="4.81078">
        <ele>314</ele>
        <time>2015-04-10T11:59:22Z</time>
      </trkpt>
      <trkpt lat="45.76469" lon="4.8107">
        <ele>314</ele>
        <time>2015-04-10T11:59:26Z</time>
      </trkpt>
      <trkpt lat="45.76466" lon="4.81058">
        <ele>315</ele>
        <time>2015-04-10T11:59:30Z</time>
      </trkpt>
      <trkpt lat="45.76464" lon="4.81053">
        <ele>315</ele>
        <time>2015-04-10T11:59:33Z</time>
      </trkpt>
      <trkpt lat="45.76462" lon="4.8104">
        <ele>315</ele>
        <time>2015-04-10T11:59:37Z</time>
      </trkpt>
      <trkpt lat="45.7646" lon="4.81033">
        <ele>315</ele>
        <time>2015-04-10T11:59:39Z</time>
      </trkpt>
      <trkpt lat="45.76458" lon="4.81026">
        <ele>315</ele>
        <time>2015-04-10T11:59:41Z</time>
      </trkpt>
      <trkpt lat="45.76458" lon="4.81019">
        <ele>315</ele>
        <time>2015-04-10T11:59:43Z</time>
      </trkpt>
      <trkpt lat="45.76456" lon="4.81013">
        <ele>315</ele>
        <time>2015-04-10T11:59:45Z</time>
      </trkpt>
      <trkpt lat="45.76452" lon="4.81007">
        <ele>315</ele>
        <time>2015-04-10T11:59:47Z</time>
      </trkpt>
      <trkpt lat="45.76448" lon="4.80998">
        <ele>315</ele>
        <time>2015-04-10T11:59:50Z</time>
      </trkpt>
      <trkpt lat="45.76444" lon="4.80991">
        <ele>315</ele>
        <time>2015-04-10T11:59:52Z</time>
      </trkpt>
      <trkpt lat="45.76438" lon="4.80985">
        <ele>315</ele>
        <time>2015-04-10T11:59:54Z</time>
      </trkpt>
      <trkpt lat="45.76432" lon="4.80978">
        <ele>315</ele>
        <time>2015-04-10T11:59:56Z</time>
      </trkpt>
      <trkpt lat="45.76427" lon="4.80972">
        <ele>315</ele>
        <time>2015-04-10T11:59:58Z</time>
      </trkpt>
      <trkpt lat="45.76423" lon="4.80966">
        <ele>315</ele>
        <time>2015-04-10T12:00:00Z</time>
      </trkpt>
      <trkpt lat="45.76421" lon="4.80958">
        <ele>316</ele>
        <time>2015-04-10T12:00:02Z</time>
      </trkpt>
      <trkpt lat="45.76423" lon="4.80945">
        <ele>316</ele>
        <time>2015-04-10T12:00:05Z</time>
      </trkpt>
      <trkpt lat="45.76419" lon="4.80942">
        <ele>316</ele>
        <time>2015-04-10T12:00:09Z</time>
      </trkpt>
      <trkpt lat="45.76412" lon="4.80946">
        <ele>316</ele>
        <time>2015-04-10T12:00:13Z</time>
      </trkpt>
      <trkpt lat="45.76405" lon="4.80947">
        <ele>316</ele>
        <time>2015-04-10T12:00:17Z</time>
      </trkpt>
      <trkpt lat="45.764" lon="4.8095">
        <ele>316</ele>
        <time>2015-04-10T12:00:21Z</time>
      </trkpt>
      <trkpt lat="45.76396" lon="4.80954">
        <ele>316</ele>
        <time>2015-04-10T12:00:24Z</time>
      </trkpt>
      <trkpt lat="45.76388" lon="4.80964">
        <ele>315</ele>
        <time>2015-04-10T12:00:28Z</time>
      </trkpt>
      <trkpt lat="45.76382" lon="4.80969">
        <ele>315</ele>
        <time>2015-04-10T12:00:30Z</time>
      </trkpt>
      <trkpt lat="45.76377" lon="4.80975">
        <ele>316</ele>
        <time>2015-04-10T12:00:32Z</time>
      </trkpt>
      <trkpt lat="45.76371" lon="4.80985">
        <ele>315</ele>
        <time>2015-04-10T12:00:35Z</time>
      </trkpt>
      <trkpt lat="45.76362" lon="4.80987">
        <ele>315</ele>
        <time>2015-04-10T12:00:39Z</time>
      </trkpt>
      <trkpt lat="45.76357" lon="4.80986">
        <ele>315</ele>
        <time>2015-04-10T12:00:41Z</time>
      </trkpt>
      <trkpt lat="45.76351" lon="4.80985">
        <ele>315</ele>
        <time>2015-04-10T12:00:43Z</time>
      </trkpt>
      <trkpt lat="45.76346" lon="4.80984">
        <ele>315</ele>
        <time>2015-04-10T12:00:45Z</time>
      </trkpt>
      <trkpt lat="45.76339" lon="4.80987">
        <ele>316</ele>
        <time>2015-04-10T12:00:48Z</time>
      </trkpt>
      <trkpt lat="45.76335" lon="4.80993">
        <ele>316</ele>
        <time>2015-04-10T12:00:50Z</time>
      </trkpt>
      <trkpt lat="45.76329" lon="4.80996">
        <ele>316</ele>
        <time>2015-04-10T12:00:52Z</time>
      </trkpt>
      <trkpt lat="45.76322" lon="4.81001">
        <ele>316</ele>
        <time>2015-04-10T12:00:54Z</time>
      </trkpt>
      <trkpt lat="45.76317" lon="4.81006">
        <ele>316</ele>
        <time>2015-04-10T12:00:56Z</time>
      </trkpt>
      <trkpt lat="45.76311" lon="4.81005">
        <ele>316</ele>
        <time>2015-04-10T12:00:58Z</time>
      </trkpt>
      <trkpt lat="45.76305" lon="4.81006">
        <ele>316</ele>
        <time>2015-04-10T12:01:00Z</time>
      </trkpt>
      <trkpt lat="45.76299" lon="4.81009">
        <ele>317</ele>
        <time>2015-04-10T12:01:03Z</time>
      </trkpt>
      <trkpt lat="45.76293" lon="4.81004">
        <ele>316</ele>
        <time>2015-04-10T12:01:07Z</time>
      </trkpt>
      <trkpt lat="45.76287" lon="4.81002">
        <ele>315</ele>
        <time>2015-04-10T12:01:11Z</time>
      </trkpt>
      <trkpt lat="45.76278" lon="4.80999">
        <ele>314</ele>
        <time>2015-04-10T12:01:15Z</time>
      </trkpt>
      <trkpt lat="45.76276" lon="4.81004">
        <ele>314</ele>
        <time>2015-04-10T12:01:17Z</time>
      </trkpt>
      <trkpt lat="45.76269" lon="4.81008">
        <ele>314</ele>
        <time>2015-04-10T12:01:21Z</time>
      </trkpt>
      <trkpt lat="45.7626" lon="4.81008">
        <ele>314</ele>
        <time>2015-04-10T12:01:24Z</time>
      </trkpt>
      <trkpt lat="45.76255" lon="4.81007">
        <ele>314</ele>
        <time>2015-04-10T12:01:26Z</time>
      </trkpt>
      <trkpt lat="45.7625" lon="4.81011">
        <ele>314</ele>
        <time>2015-04-10T12:01:28Z</time>
      </trkpt>
      <trkpt lat="45.76247" lon="4.81018">
        <ele>314</ele>
        <time>2015-04-10T12:01:30Z</time>
      </trkpt>
      <trkpt lat="45.76242" lon="4.81024">
        <ele>314</ele>
        <time>2015-04-10T12:01:32Z</time>
      </trkpt>
      <trkpt lat="45.76238" lon="4.81033">
        <ele>314</ele>
        <time>2015-04-10T12:01:35Z</time>
      </trkpt>
      <trkpt lat="45.76235" lon="4.81041">
        <ele>314</ele>
        <time>2015-04-10T12:01:37Z</time>
      </trkpt>
      <trkpt lat="45.76231" lon="4.81049">
        <ele>313</ele>
        <time>2015-04-10T12:01:41Z</time>
      </trkpt>
      <trkpt lat="45.76225" lon="4.81047">
        <ele>312</ele>
        <time>2015-04-10T12:01:45Z</time>
      </trkpt>
      <trkpt lat="45.76218" lon="4.81042">
        <ele>312</ele>
        <time>2015-04-10T12:01:47Z</time>
      </trkpt>
      <trkpt lat="45.76213" lon="4.81037">
        <ele>311</ele>
        <time>2015-04-10T12:01:49Z</time>
      </trkpt>
      <trkpt lat="45.76209" lon="4.81033">
        <ele>311</ele>
        <time>2015-04-10T12:01:51Z</time>
      </trkpt>
      <trkpt lat="45.76201" lon="4.81028">
        <ele>311</ele>
        <time>2015-04-10T12:01:54Z</time>
      </trkpt>
      <trkpt lat="45.76195" lon="4.81024">
        <ele>311</ele>
        <time>2015-04-10T12:01:56Z</time>
      </trkpt>
      <trkpt lat="45.76186" lon="4.81016">
        <ele>311</ele>
        <time>2015-04-10T12:01:58Z</time>
      </trkpt>
      <trkpt lat="45.7618" lon="4.81012">
        <ele>310</ele>
        <time>2015-04-10T12:02:00Z</time>
      </trkpt>
      <trkpt lat="45.76175" lon="4.81011">
        <ele>311</ele>
        <time>2015-04-10T12:02:03Z</time>
      </trkpt>
      <trkpt lat="45.7617" lon="4.81014">
        <ele>311</ele>
        <time>2015-04-10T12:02:07Z</time>
      </trkpt>
      <trkpt lat="45.76162" lon="4.81018">
        <ele>311</ele>
        <time>2015-04-10T12:02:11Z</time>
      </trkpt>
      <trkpt lat="45.76157" lon="4.81022">
        <ele>310</ele>
        <time>2015-04-10T12:02:13Z</time>
      </trkpt>
      <trkpt lat="45.7615" lon="4.81029">
        <ele>310</ele>
        <time>2015-04-10T12:02:17Z</time>
      </trkpt>
      <trkpt lat="45.76146" lon="4.81036">
        <ele>309</ele>
        <time>2015-04-10T12:02:20Z</time>
      </trkpt>
      <trkpt lat="45.7614" lon="4.81039">
        <ele>309</ele>
        <time>2015-04-10T12:02:22Z</time>
      </trkpt>
      <trkpt lat="45.76135" lon="4.81041">
        <ele>308</ele>
        <time>2015-04-10T12:02:24Z</time>
      </trkpt>
      <trkpt lat="45.76129" lon="4.81043">
        <ele>308</ele>
        <time>2015-04-10T12:02:26Z</time>
      </trkpt>
      <trkpt lat="45.76124" lon="4.81048">
        <ele>308</ele>
        <time>2015-04-10T12:02:28Z</time>
      </trkpt>
      <trkpt lat="45.76121" lon="4.81052">
        <ele>308</ele>
        <time>2015-04-10T12:02:30Z</time>
      </trkpt>
      <trkpt lat="45.76118" lon="4.81057">
        <ele>308</ele>
        <time>2015-04-10T12:02:32Z</time>
      </trkpt>
      <trkpt lat="45.76111" lon="4.81066">
        <ele>308</ele>
        <time>2015-04-10T12:02:35Z</time>
      </trkpt>
      <trkpt lat="45.76107" lon="4.81072">
        <ele>308</ele>
        <time>2015-04-10T12:02:37Z</time>
      </trkpt>
      <trkpt lat="45.76101" lon="4.81076">
        <ele>308</ele>
        <time>2015-04-10T12:02:39Z</time>
      </trkpt>
      <trkpt lat="45.76094" lon="4.81077">
        <ele>308</ele>
        <time>2015-04-10T12:02:41Z</time>
      </trkpt>
      <trkpt lat="45.76086" lon="4.81077">
        <ele>308</ele>
        <time>2015-04-10T12:02:43Z</time>
      </trkpt>
      <trkpt lat="45.76078" lon="4.81075">
        <ele>308</ele>
        <time>2015-04-10T12:02:45Z</time>
      </trkpt>
      <trkpt lat="45.76071" lon="4.81072">
        <ele>308</ele>
        <time>2015-04-10T12:02:47Z</time>
      </trkpt>
      <trkpt lat="45.76067" lon="4.8107">
        <ele>308</ele>
        <time>2015-04-10T12:02:48Z</time>
      </trkpt>
      <trkpt lat="45.7606" lon="4.81073">
        <ele>308</ele>
        <time>2015-04-10T12:02:51Z</time>
      </trkpt>
      <trkpt lat="45.76054" lon="4.81077">
        <ele>308</ele>
        <time>2015-04-10T12:02:54Z</time>
      </trkpt>
      <trkpt lat="45.76044" lon="4.81076">
        <ele>308</ele>
        <time>2015-04-10T12:02:58Z</time>
      </trkpt>
      <trkpt lat="45.76036" lon="4.81072">
        <ele>309</ele>
        <time>2015-04-10T12:03:00Z</time>
      </trkpt>
      <trkpt lat="45.7603" lon="4.81071">
        <ele>309</ele>
        <time>2015-04-10T12:03:02Z</time>
      </trkpt>
      <trkpt lat="45.76022" lon="4.81073">
        <ele>309</ele>
        <time>2015-04-10T12:03:05Z</time>
      </trkpt>
      <trkpt lat="45.76017" lon="4.81072">
        <ele>309</ele>
        <time>2015-04-10T12:03:07Z</time>
      </trkpt>
      <trkpt lat="45.7601" lon="4.81075">
        <ele>310</ele>
        <time>2015-04-10T12:03:11Z</time>
      </trkpt>
      <trkpt lat="45.76005" lon="4.81083">
        <ele>310</ele>
        <time>2015-04-10T12:03:15Z</time>
      </trkpt>
      <trkpt lat="45.76" lon="4.81087">
        <ele>310</ele>
        <time>2015-04-10T12:03:19Z</time>
      </trkpt>
      <trkpt lat="45.75995" lon="4.81094">
        <ele>310</ele>
        <time>2015-04-10T12:03:23Z</time>
      </trkpt>
      <trkpt lat="45.75988" lon="4.81093">
        <ele>311</ele>
        <time>2015-04-10T12:03:28Z</time>
      </trkpt>
      <trkpt lat="45.75982" lon="4.81095">
        <ele>311</ele>
        <time>2015-04-10T12:03:32Z</time>
      </trkpt>
      <trkpt lat="45.75977" lon="4.81095">
        <ele>312</ele>
        <time>2015-04-10T12:03:35Z</time>
      </trkpt>
      <trkpt lat="45.75969" lon="4.81095">
        <ele>312</ele>
        <time>2015-04-10T12:03:39Z</time>
      </trkpt>
      <trkpt lat="45.75962" lon="4.81094">
        <ele>312</ele>
        <time>2015-04-10T12:03:42Z</time>
      </trkpt>
      <trkpt lat="45.75955" lon="4.81087">
        <ele>313</ele>
        <time>2015-04-10T12:03:45Z</time>
      </trkpt>
      <trkpt lat="45.7595" lon="4.81087">
        <ele>313</ele>
        <time>2015-04-10T12:03:47Z</time>
      </trkpt>
      <trkpt lat="45.75951" lon="4.81107">
        <ele>313</ele>
        <time>2015-04-10T12:03:50Z</time>
      </trkpt>
      <trkpt lat="45.75948" lon="4.81112">
        <ele>313</ele>
        <time>2015-04-10T12:03:54Z</time>
      </trkpt>
      <trkpt lat="45.75943" lon="4.81119">
        <ele>314</ele>
        <time>2015-04-10T12:03:58Z</time>
      </trkpt>
      <trkpt lat="45.75937" lon="4.81119">
        <ele>314</ele>
        <time>2015-04-10T12:04:02Z</time>
      </trkpt>
      <trkpt lat="45.75933" lon="4.81122">
        <ele>315</ele>
        <time>2015-04-10T12:04:05Z</time>
      </trkpt>
      <trkpt lat="45.7593" lon="4.81127">
        <ele>315</ele>
        <time>2015-04-10T12:04:07Z</time>
      </trkpt>
      <trkpt lat="45.75926" lon="4.81132">
        <ele>315</ele>
        <time>2015-04-10T12:04:09Z</time>
      </trkpt>
      <trkpt lat="45.75921" lon="4.8114">
        <ele>315</ele>
        <time>2015-04-10T12:04:13Z</time>
      </trkpt>
      <trkpt lat="45.75917" lon="4.81148">
        <ele>316</ele>
        <time>2015-04-10T12:04:17Z</time>
      </trkpt>
      <trkpt lat="45.75912" lon="4.81157">
        <ele>316</ele>
        <time>2015-04-10T12:04:21Z</time>
      </trkpt>
      <trkpt lat="45.7591" lon="4.81163">
        <ele>317</ele>
        <time>2015-04-10T12:04:23Z</time>
      </trkpt>
      <trkpt lat="45.75904" lon="4.81173">
        <ele>317</ele>
        <time>2015-04-10T12:04:26Z</time>
      </trkpt>
      <trkpt lat="45.75901" lon="4.8118">
        <ele>317</ele>
        <time>2015-04-10T12:04:28Z</time>
      </trkpt>
      <trkpt lat="45.75893" lon="4.81188">
        <ele>318</ele>
        <time>2015-04-10T12:04:32Z</time>
      </trkpt>
      <trkpt lat="45.75888" lon="4.81194">
        <ele>318</ele>
        <time>2015-04-10T12:04:34Z</time>
      </trkpt>
      <trkpt lat="45.75884" lon="4.81197">
        <ele>319</ele>
        <time>2015-04-10T12:04:38Z</time>
      </trkpt>
      <trkpt lat="45.75878" lon="4.81196">
        <ele>319</ele>
        <time>2015-04-10T12:04:43Z</time>
      </trkpt>
      <trkpt lat="45.75877" lon="4.81205">
        <ele>318</ele>
        <time>2015-04-10T12:04:47Z</time>
      </trkpt>
      <trkpt lat="45.7588" lon="4.81212">
        <ele>317</ele>
        <time>2015-04-10T12:04:49Z</time>
      </trkpt>
      <trkpt lat="45.75884" lon="4.81219">
        <ele>315</ele>
        <time>2015-04-10T12:04:51Z</time>
      </trkpt>
      <trkpt lat="45.75886" lon="4.81225">
        <ele>314</ele>
        <time>2015-04-10T12:04:54Z</time>
      </trkpt>
      <trkpt lat="45.75886" lon="4.81236">
        <ele>313</ele>
        <time>2015-04-10T12:04:56Z</time>
      </trkpt>
      <trkpt lat="45.75885" lon="4.81245">
        <ele>312</ele>
        <time>2015-04-10T12:04:58Z</time>
      </trkpt>
      <trkpt lat="45.75883" lon="4.81256">
        <ele>311</ele>
        <time>2015-04-10T12:05:00Z</time>
      </trkpt>
      <trkpt lat="45.75879" lon="4.81266">
        <ele>310</ele>
        <time>2015-04-10T12:05:02Z</time>
      </trkpt>
      <trkpt lat="45.75875" lon="4.81279">
        <ele>310</ele>
        <time>2015-04-10T12:05:05Z</time>
      </trkpt>
      <trkpt lat="45.75871" lon="4.81287">
        <ele>310</ele>
        <time>2015-04-10T12:05:07Z</time>
      </trkpt>
      <trkpt lat="45.75868" lon="4.81294">
        <ele>309</ele>
        <time>2015-04-10T12:05:09Z</time>
      </trkpt>
      <trkpt lat="45.75862" lon="4.81297">
        <ele>310</ele>
        <time>2015-04-10T12:05:15Z</time>
      </trkpt>
      <trkpt lat="45.7586" lon="4.81284">
        <ele>310</ele>
        <time>2015-04-10T12:05:19Z</time>
      </trkpt>
      <trkpt lat="45.75854" lon="4.81286">
        <ele>310</ele>
        <time>2015-04-10T12:05:21Z</time>
      </trkpt>
      <trkpt lat="45.75848" lon="4.81291">
        <ele>309</ele>
        <time>2015-04-10T12:05:23Z</time>
      </trkpt>
      <trkpt lat="45.75841" lon="4.81295">
        <ele>309</ele>
        <time>2015-04-10T12:05:26Z</time>
      </trkpt>
      <trkpt lat="45.75834" lon="4.81299">
        <ele>308</ele>
        <time>2015-04-10T12:05:28Z</time>
      </trkpt>
      <trkpt lat="45.75827" lon="4.81303">
        <ele>308</ele>
        <time>2015-04-10T12:05:30Z</time>
      </trkpt>
      <trkpt lat="45.75821" lon="4.81308">
        <ele>308</ele>
        <time>2015-04-10T12:05:32Z</time>
      </trkpt>
      <trkpt lat="45.75815" lon="4.81313">
        <ele>308</ele>
        <time>2015-04-10T12:05:35Z</time>
      </trkpt>
      <trkpt lat="45.75809" lon="4.81319">
        <ele>308</ele>
        <time>2015-04-10T12:05:37Z</time>
      </trkpt>
      <trkpt lat="45.758" lon="4.81327">
        <ele>309</ele>
        <time>2015-04-10T12:05:41Z</time>
      </trkpt>
      <trkpt lat="45.75794" lon="4.81336">
        <ele>309</ele>
        <time>2015-04-10T12:05:43Z</time>
      </trkpt>
      <trkpt lat="45.75788" lon="4.81344">
        <ele>310</ele>
        <time>2015-04-10T12:05:45Z</time>
      </trkpt>
      <trkpt lat="45.75781" lon="4.81345">
        <ele>310</ele>
        <time>2015-04-10T12:05:47Z</time>
      </trkpt>
      <trkpt lat="45.75776" lon="4.81347">
        <ele>310</ele>
        <time>2015-04-10T12:05:51Z</time>
      </trkpt>
      <trkpt lat="45.75769" lon="4.81352">
        <ele>310</ele>
        <time>2015-04-10T12:06:03Z</time>
      </trkpt>
      <trkpt lat="45.75765" lon="4.81355">
        <ele>310</ele>
        <time>2015-04-10T12:06:07Z</time>
      </trkpt>
      <trkpt lat="45.75758" lon="4.81367">
        <ele>309</ele>
        <time>2015-04-10T12:06:11Z</time>
      </trkpt>
      <trkpt lat="45.75754" lon="4.81373">
        <ele>309</ele>
        <time>2015-04-10T12:06:13Z</time>
      </trkpt>
      <trkpt lat="45.75749" lon="4.8138">
        <ele>309</ele>
        <time>2015-04-10T12:06:15Z</time>
      </trkpt>
      <trkpt lat="45.75745" lon="4.81387">
        <ele>309</ele>
        <time>2015-04-10T12:06:17Z</time>
      </trkpt>
      <trkpt lat="45.7574" lon="4.81394">
        <ele>308</ele>
        <time>2015-04-10T12:06:19Z</time>
      </trkpt>
      <trkpt lat="45.75736" lon="4.81401">
        <ele>308</ele>
        <time>2015-04-10T12:06:21Z</time>
      </trkpt>
      <trkpt lat="45.75731" lon="4.81407">
        <ele>308</ele>
        <time>2015-04-10T12:06:23Z</time>
      </trkpt>
      <trkpt lat="45.75723" lon="4.81418">
        <ele>308</ele>
        <time>2015-04-10T12:06:26Z</time>
      </trkpt>
      <trkpt lat="45.75709" lon="4.81425">
        <ele>308</ele>
        <time>2015-04-10T12:06:28Z</time>
      </trkpt>
      <trkpt lat="45.75703" lon="4.81431">
        <ele>308</ele>
        <time>2015-04-10T12:06:30Z</time>
      </trkpt>
      <trkpt lat="45.75697" lon="4.81439">
        <ele>307</ele>
        <time>2015-04-10T12:06:32Z</time>
      </trkpt>
      <trkpt lat="45.75692" lon="4.81447">
        <ele>307</ele>
        <time>2015-04-10T12:06:33Z</time>
      </trkpt>
      <trkpt lat="45.75681" lon="4.81468">
        <ele>305</ele>
        <time>2015-04-10T12:06:35Z</time>
      </trkpt>
      <trkpt lat="45.75675" lon="4.81475">
        <ele>305</ele>
        <time>2015-04-10T12:06:37Z</time>
      </trkpt>
      <trkpt lat="45.75669" lon="4.81483">
        <ele>305</ele>
        <time>2015-04-10T12:06:39Z</time>
      </trkpt>
      <trkpt lat="45.75662" lon="4.81492">
        <ele>305</ele>
        <time>2015-04-10T12:06:41Z</time>
      </trkpt>
      <trkpt lat="45.75655" lon="4.81499">
        <ele>305</ele>
        <time>2015-04-10T12:06:43Z</time>
      </trkpt>
      <trkpt lat="45.75649" lon="4.81504">
        <ele>305</ele>
        <time>2015-04-10T12:06:46Z</time>
      </trkpt>
      <trkpt lat="45.75645" lon="4.81517">
        <ele>304</ele>
        <time>2015-04-10T12:06:53Z</time>
      </trkpt>
      <trkpt lat="45.75641" lon="4.81521">
        <ele>302</ele>
        <time>2015-04-10T12:07:03Z</time>
      </trkpt>
      <trkpt lat="45.75636" lon="4.81522">
        <ele>302</ele>
        <time>2015-04-10T12:07:05Z</time>
      </trkpt>
      <trkpt lat="45.75626" lon="4.81526">
        <ele>302</ele>
        <time>2015-04-10T12:07:07Z</time>
      </trkpt>
      <trkpt lat="45.75621" lon="4.81529">
        <ele>302</ele>
        <time>2015-04-10T12:07:09Z</time>
      </trkpt>
      <trkpt lat="45.75617" lon="4.81533">
        <ele>302</ele>
        <time>2015-04-10T12:07:11Z</time>
      </trkpt>
      <trkpt lat="45.7561" lon="4.81544">
        <ele>303</ele>
        <time>2015-04-10T12:07:13Z</time>
      </trkpt>
      <trkpt lat="45.75602" lon="4.81547">
        <ele>303</ele>
        <time>2015-04-10T12:07:17Z</time>
      </trkpt>
      <trkpt lat="45.75597" lon="4.81546">
        <ele>302</ele>
        <time>2015-04-10T12:07:23Z</time>
      </trkpt>
      <trkpt lat="45.75588" lon="4.81557">
        <ele>302</ele>
        <time>2015-04-10T12:07:28Z</time>
      </trkpt>
      <trkpt lat="45.75581" lon="4.81569">
        <ele>301</ele>
        <time>2015-04-10T12:07:30Z</time>
      </trkpt>
      <trkpt lat="45.75576" lon="4.81573">
        <ele>300</ele>
        <time>2015-04-10T12:07:32Z</time>
      </trkpt>
      <trkpt lat="45.75566" lon="4.8158">
        <ele>300</ele>
        <time>2015-04-10T12:07:35Z</time>
      </trkpt>
      <trkpt lat="45.75562" lon="4.81582">
        <ele>300</ele>
        <time>2015-04-10T12:07:37Z</time>
      </trkpt>
      <trkpt lat="45.75556" lon="4.81585">
        <ele>299</ele>
        <time>2015-04-10T12:07:39Z</time>
      </trkpt>
      <trkpt lat="45.75552" lon="4.81588">
        <ele>299</ele>
        <time>2015-04-10T12:07:41Z</time>
      </trkpt>
      <trkpt lat="45.75542" lon="4.81597">
        <ele>298</ele>
        <time>2015-04-10T12:07:43Z</time>
      </trkpt>
      <trkpt lat="45.75534" lon="4.81604">
        <ele>298</ele>
        <time>2015-04-10T12:07:45Z</time>
      </trkpt>
      <trkpt lat="45.7553" lon="4.81608">
        <ele>297</ele>
        <time>2015-04-10T12:07:47Z</time>
      </trkpt>
      <trkpt lat="45.75525" lon="4.81611">
        <ele>297</ele>
        <time>2015-04-10T12:07:49Z</time>
      </trkpt>
      <trkpt lat="45.7552" lon="4.81614">
        <ele>296</ele>
        <time>2015-04-10T12:07:51Z</time>
      </trkpt>
      <trkpt lat="45.75515" lon="4.81617">
        <ele>296</ele>
        <time>2015-04-10T12:07:53Z</time>
      </trkpt>
      <trkpt lat="45.75508" lon="4.81616">
        <ele>296</ele>
        <time>2015-04-10T12:07:56Z</time>
      </trkpt>
      <trkpt lat="45.75502" lon="4.8162">
        <ele>296</ele>
        <time>2015-04-10T12:07:58Z</time>
      </trkpt>
      <trkpt lat="45.75496" lon="4.81621">
        <ele>295</ele>
        <time>2015-04-10T12:08:00Z</time>
      </trkpt>
      <trkpt lat="45.75491" lon="4.81623">
        <ele>295</ele>
        <time>2015-04-10T12:08:02Z</time>
      </trkpt>
      <trkpt lat="45.75483" lon="4.81625">
        <ele>293</ele>
        <time>2015-04-10T12:08:05Z</time>
      </trkpt>
      <trkpt lat="45.75477" lon="4.81628">
        <ele>293</ele>
        <time>2015-04-10T12:08:07Z</time>
      </trkpt>
      <trkpt lat="45.75472" lon="4.81628">
        <ele>292</ele>
        <time>2015-04-10T12:08:09Z</time>
      </trkpt>
      <trkpt lat="45.75466" lon="4.81626">
        <ele>292</ele>
        <time>2015-04-10T12:08:11Z</time>
      </trkpt>
      <trkpt lat="45.7546" lon="4.81624">
        <ele>291</ele>
        <time>2015-04-10T12:08:13Z</time>
      </trkpt>
      <trkpt lat="45.75454" lon="4.81624">
        <ele>291</ele>
        <time>2015-04-10T12:08:15Z</time>
      </trkpt>
      <trkpt lat="45.75448" lon="4.81622">
        <ele>291</ele>
        <time>2015-04-10T12:08:17Z</time>
      </trkpt>
      <trkpt lat="45.75442" lon="4.81622">
        <ele>290</ele>
        <time>2015-04-10T12:08:19Z</time>
      </trkpt>
      <trkpt lat="45.75436" lon="4.81621">
        <ele>290</ele>
        <time>2015-04-10T12:08:21Z</time>
      </trkpt>
      <trkpt lat="45.75431" lon="4.8162">
        <ele>290</ele>
        <time>2015-04-10T12:08:23Z</time>
      </trkpt>
      <trkpt lat="45.75421" lon="4.81621">
        <ele>289</ele>
        <time>2015-04-10T12:08:26Z</time>
      </trkpt>
      <trkpt lat="45.75414" lon="4.81623">
        <ele>288</ele>
        <time>2015-04-10T12:08:28Z</time>
      </trkpt>
      <trkpt lat="45.75408" lon="4.81625">
        <ele>288</ele>
        <time>2015-04-10T12:08:30Z</time>
      </trkpt>
      <trkpt lat="45.75403" lon="4.81623">
        <ele>288</ele>
        <time>2015-04-10T12:08:32Z</time>
      </trkpt>
      <trkpt lat="45.75394" lon="4.81623">
        <ele>287</ele>
        <time>2015-04-10T12:08:35Z</time>
      </trkpt>
      <trkpt lat="45.75388" lon="4.81624">
        <ele>286</ele>
        <time>2015-04-10T12:08:37Z</time>
      </trkpt>
      <trkpt lat="45.75382" lon="4.81626">
        <ele>286</ele>
        <time>2015-04-10T12:08:39Z</time>
      </trkpt>
      <trkpt lat="45.75376" lon="4.81627">
        <ele>285</ele>
        <time>2015-04-10T12:08:41Z</time>
      </trkpt>
      <trkpt lat="45.7537" lon="4.8163">
        <ele>285</ele>
        <time>2015-04-10T12:08:43Z</time>
      </trkpt>
      <trkpt lat="45.75364" lon="4.81631">
        <ele>284</ele>
        <time>2015-04-10T12:08:45Z</time>
      </trkpt>
      <trkpt lat="45.75358" lon="4.8163">
        <ele>284</ele>
        <time>2015-04-10T12:08:47Z</time>
      </trkpt>
      <trkpt lat="45.75353" lon="4.8163">
        <ele>283</ele>
        <time>2015-04-10T12:08:49Z</time>
      </trkpt>
      <trkpt lat="45.75348" lon="4.8163">
        <ele>283</ele>
        <time>2015-04-10T12:08:51Z</time>
      </trkpt>
      <trkpt lat="45.75341" lon="4.8163">
        <ele>282</ele>
        <time>2015-04-10T12:08:53Z</time>
      </trkpt>
      <trkpt lat="45.75332" lon="4.81631">
        <ele>282</ele>
        <time>2015-04-10T12:08:56Z</time>
      </trkpt>
      <trkpt lat="45.75327" lon="4.81628">
        <ele>281</ele>
        <time>2015-04-10T12:08:58Z</time>
      </trkpt>
      <trkpt lat="45.75321" lon="4.8162">
        <ele>280</ele>
        <time>2015-04-10T12:09:02Z</time>
      </trkpt>
      <trkpt lat="45.75315" lon="4.81618">
        <ele>279</ele>
        <time>2015-04-10T12:09:05Z</time>
      </trkpt>
      <trkpt lat="45.7531" lon="4.81618">
        <ele>279</ele>
        <time>2015-04-10T12:09:07Z</time>
      </trkpt>
      <trkpt lat="45.75305" lon="4.81619">
        <ele>278</ele>
        <time>2015-04-10T12:09:09Z</time>
      </trkpt>
      <trkpt lat="45.753" lon="4.81619">
        <ele>278</ele>
        <time>2015-04-10T12:09:11Z</time>
      </trkpt>
      <trkpt lat="45.75294" lon="4.81617">
        <ele>278</ele>
        <time>2015-04-10T12:09:13Z</time>
      </trkpt>
      <trkpt lat="45.75289" lon="4.81618">
        <ele>277</ele>
        <time>2015-04-10T12:09:15Z</time>
      </trkpt>
      <trkpt lat="45.75279" lon="4.8162">
        <ele>276</ele>
        <time>2015-04-10T12:09:19Z</time>
      </trkpt>
      <trkpt lat="45.75274" lon="4.8162">
        <ele>275</ele>
        <time>2015-04-10T12:09:21Z</time>
      </trkpt>
      <trkpt lat="45.75268" lon="4.81621">
        <ele>275</ele>
        <time>2015-04-10T12:09:23Z</time>
      </trkpt>
      <trkpt lat="45.75262" lon="4.81622">
        <ele>274</ele>
        <time>2015-04-10T12:09:26Z</time>
      </trkpt>
      <trkpt lat="45.75254" lon="4.8162">
        <ele>273</ele>
        <time>2015-04-10T12:09:30Z</time>
      </trkpt>
      <trkpt lat="45.75249" lon="4.8162">
        <ele>273</ele>
        <time>2015-04-10T12:09:32Z</time>
      </trkpt>
      <trkpt lat="45.7524" lon="4.81618">
        <ele>272</ele>
        <time>2015-04-10T12:09:36Z</time>
      </trkpt>
      <trkpt lat="45.75235" lon="4.81615">
        <ele>272</ele>
        <time>2015-04-10T12:09:39Z</time>
      </trkpt>
      <trkpt lat="45.75232" lon="4.81605">
        <ele>271</ele>
        <time>2015-04-10T12:09:43Z</time>
      </trkpt>
      <trkpt lat="45.75231" lon="4.81599">
        <ele>271</ele>
        <time>2015-04-10T12:09:45Z</time>
      </trkpt>
      <trkpt lat="45.75223" lon="4.816">
        <ele>270</ele>
        <time>2015-04-10T12:09:49Z</time>
      </trkpt>
      <trkpt lat="45.75216" lon="4.8161">
        <ele>270</ele>
        <time>2015-04-10T12:09:51Z</time>
      </trkpt>
      <trkpt lat="45.75207" lon="4.81621">
        <ele>269</ele>
        <time>2015-04-10T12:09:53Z</time>
      </trkpt>
      <trkpt lat="45.75202" lon="4.81627">
        <ele>269</ele>
        <time>2015-04-10T12:09:54Z</time>
      </trkpt>
      <trkpt lat="45.75196" lon="4.81634">
        <ele>268</ele>
        <time>2015-04-10T12:09:56Z</time>
      </trkpt>
      <trkpt lat="45.75192" lon="4.81637">
        <ele>267</ele>
        <time>2015-04-10T12:09:58Z</time>
      </trkpt>
      <trkpt lat="45.75184" lon="4.81638">
        <ele>266</ele>
        <time>2015-04-10T12:10:02Z</time>
      </trkpt>
      <trkpt lat="45.75178" lon="4.81642">
        <ele>266</ele>
        <time>2015-04-10T12:10:04Z</time>
      </trkpt>
      <trkpt lat="45.75165" lon="4.81651">
        <ele>267</ele>
        <time>2015-04-10T12:10:07Z</time>
      </trkpt>
      <trkpt lat="45.75158" lon="4.81651">
        <ele>267</ele>
        <time>2015-04-10T12:10:09Z</time>
      </trkpt>
      <trkpt lat="45.75149" lon="4.81645">
        <ele>266</ele>
        <time>2015-04-10T12:10:13Z</time>
      </trkpt>
      <trkpt lat="45.75143" lon="4.81644">
        <ele>266</ele>
        <time>2015-04-10T12:10:15Z</time>
      </trkpt>
      <trkpt lat="45.75137" lon="4.81642">
        <ele>265</ele>
        <time>2015-04-10T12:10:17Z</time>
      </trkpt>
      <trkpt lat="45.75132" lon="4.81639">
        <ele>265</ele>
        <time>2015-04-10T12:10:19Z</time>
      </trkpt>
      <trkpt lat="45.75125" lon="4.81636">
        <ele>265</ele>
        <time>2015-04-10T12:10:21Z</time>
      </trkpt>
      <trkpt lat="45.75118" lon="4.81628">
        <ele>265</ele>
        <time>2015-04-10T12:10:23Z</time>
      </trkpt>
      <trkpt lat="45.75112" lon="4.81622">
        <ele>264</ele>
        <time>2015-04-10T12:10:25Z</time>
      </trkpt>
      <trkpt lat="45.75105" lon="4.81612">
        <ele>264</ele>
        <time>2015-04-10T12:10:28Z</time>
      </trkpt>
      <trkpt lat="45.75099" lon="4.81606">
        <ele>264</ele>
        <time>2015-04-10T12:10:30Z</time>
      </trkpt>
      <trkpt lat="45.75094" lon="4.816">
        <ele>263</ele>
        <time>2015-04-10T12:10:32Z</time>
      </trkpt>
      <trkpt lat="45.7509" lon="4.81596">
        <ele>263</ele>
        <time>2015-04-10T12:10:34Z</time>
      </trkpt>
      <trkpt lat="45.75086" lon="4.81588">
        <ele>263</ele>
        <time>2015-04-10T12:10:36Z</time>
      </trkpt>
      <trkpt lat="45.75064" lon="4.81571">
        <ele>262</ele>
        <time>2015-04-10T12:10:47Z</time>
      </trkpt>
      <trkpt lat="45.75064" lon="4.81597">
        <ele>261</ele>
        <time>2015-04-10T12:10:49Z</time>
      </trkpt>
      <trkpt lat="45.7506" lon="4.81604">
        <ele>261</ele>
        <time>2015-04-10T12:10:51Z</time>
      </trkpt>
      <trkpt lat="45.75056" lon="4.81613">
        <ele>260</ele>
        <time>2015-04-10T12:10:53Z</time>
      </trkpt>
      <trkpt lat="45.75049" lon="4.81628">
        <ele>259</ele>
        <time>2015-04-10T12:10:56Z</time>
      </trkpt>
      <trkpt lat="45.75044" lon="4.81639">
        <ele>258</ele>
        <time>2015-04-10T12:10:58Z</time>
      </trkpt>
      <trkpt lat="45.75039" lon="4.8165">
        <ele>258</ele>
        <time>2015-04-10T12:11:00Z</time>
      </trkpt>
      <trkpt lat="45.75036" lon="4.81658">
        <ele>257</ele>
        <time>2015-04-10T12:11:02Z</time>
      </trkpt>
      <trkpt lat="45.75032" lon="4.8167">
        <ele>257</ele>
        <time>2015-04-10T12:11:04Z</time>
      </trkpt>
      <trkpt lat="45.75029" lon="4.81683">
        <ele>257</ele>
        <time>2015-04-10T12:11:07Z</time>
      </trkpt>
      <trkpt lat="45.75042" lon="4.81695">
        <ele>256</ele>
        <time>2015-04-10T12:11:11Z</time>
      </trkpt>
      <trkpt lat="45.75057" lon="4.81703">
        <ele>256</ele>
        <time>2015-04-10T12:11:13Z</time>
      </trkpt>
      <trkpt lat="45.75068" lon="4.81712">
        <ele>256</ele>
        <time>2015-04-10T12:11:15Z</time>
      </trkpt>
      <trkpt lat="45.7507" lon="4.81721">
        <ele>255</ele>
        <time>2015-04-10T12:11:17Z</time>
      </trkpt>
      <trkpt lat="45.75072" lon="4.81728">
        <ele>255</ele>
        <time>2015-04-10T12:11:19Z</time>
      </trkpt>
      <trkpt lat="45.75072" lon="4.81737">
        <ele>255</ele>
        <time>2015-04-10T12:11:21Z</time>
      </trkpt>
      <trkpt lat="45.75075" lon="4.81744">
        <ele>254</ele>
        <time>2015-04-10T12:11:23Z</time>
      </trkpt>
      <trkpt lat="45.75076" lon="4.81753">
        <ele>254</ele>
        <time>2015-04-10T12:11:25Z</time>
      </trkpt>
      <trkpt lat="45.75083" lon="4.81747">
        <ele>254</ele>
        <time>2015-04-10T12:11:26Z</time>
      </trkpt>
      <trkpt lat="45.75096" lon="4.81738">
        <ele>253</ele>
        <time>2015-04-10T12:11:28Z</time>
      </trkpt>
      <trkpt lat="45.75104" lon="4.81731">
        <ele>252</ele>
        <time>2015-04-10T12:11:30Z</time>
      </trkpt>
      <trkpt lat="45.7511" lon="4.81731">
        <ele>252</ele>
        <time>2015-04-10T12:11:34Z</time>
      </trkpt>
      <trkpt lat="45.75115" lon="4.81739">
        <ele>251</ele>
        <time>2015-04-10T12:11:41Z</time>
      </trkpt>
      <trkpt lat="45.75118" lon="4.81744">
        <ele>251</ele>
        <time>2015-04-10T12:11:43Z</time>
      </trkpt>
      <trkpt lat="45.75115" lon="4.81767">
        <ele>250</ele>
        <time>2015-04-10T12:11:49Z</time>
      </trkpt>
      <trkpt lat="45.75105" lon="4.81779">
        <ele>248</ele>
        <time>2015-04-10T12:11:51Z</time>
      </trkpt>
      <trkpt lat="45.75105" lon="4.8179">
        <ele>247</ele>
        <time>2015-04-10T12:11:53Z</time>
      </trkpt>
      <trkpt lat="45.75104" lon="4.818">
        <ele>246</ele>
        <time>2015-04-10T12:11:55Z</time>
      </trkpt>
      <trkpt lat="45.75106" lon="4.81813">
        <ele>245</ele>
        <time>2015-04-10T12:11:58Z</time>
      </trkpt>
      <trkpt lat="45.75105" lon="4.81822">
        <ele>244</ele>
        <time>2015-04-10T12:12:00Z</time>
      </trkpt>
      <trkpt lat="45.75102" lon="4.81832">
        <ele>242</ele>
        <time>2015-04-10T12:12:02Z</time>
      </trkpt>
      <trkpt lat="45.75102" lon="4.81839">
        <ele>242</ele>
        <time>2015-04-10T12:12:04Z</time>
      </trkpt>
      <trkpt lat="45.75098" lon="4.81851">
        <ele>241</ele>
        <time>2015-04-10T12:12:06Z</time>
      </trkpt>
      <trkpt lat="45.75097" lon="4.81859">
        <ele>240</ele>
        <time>2015-04-10T12:12:08Z</time>
      </trkpt>
      <trkpt lat="45.75094" lon="4.81872">
        <ele>239</ele>
        <time>2015-04-10T12:12:11Z</time>
      </trkpt>
      <trkpt lat="45.75099" lon="4.81873">
        <ele>238</ele>
        <time>2015-04-10T12:12:15Z</time>
      </trkpt>
      <trkpt lat="45.75172" lon="4.82004">
        <ele>232</ele>
        <time>2015-04-10T12:12:56Z</time>
      </trkpt>
      <trkpt lat="45.75188" lon="4.82008">
        <ele>232</ele>
        <time>2015-04-10T12:12:58Z</time>
      </trkpt>
      <trkpt lat="45.75217" lon="4.82006">
        <ele>232</ele>
        <time>2015-04-10T12:13:00Z</time>
      </trkpt>
      <trkpt lat="45.75213" lon="4.8201">
        <ele>231</ele>
        <time>2015-04-10T12:13:04Z</time>
      </trkpt>
      <trkpt lat="45.75208" lon="4.82013">
        <ele>231</ele>
        <time>2015-04-10T12:13:07Z</time>
      </trkpt>
      <trkpt lat="45.752" lon="4.82016">
        <ele>230</ele>
        <time>2015-04-10T12:13:11Z</time>
      </trkpt>
      <trkpt lat="45.75195" lon="4.82018">
        <ele>230</ele>
        <time>2015-04-10T12:13:13Z</time>
      </trkpt>
      <trkpt lat="45.75189" lon="4.82017">
        <ele>230</ele>
        <time>2015-04-10T12:13:15Z</time>
      </trkpt>
      <trkpt lat="45.75184" lon="4.82018">
        <ele>230</ele>
        <time>2015-04-10T12:13:17Z</time>
      </trkpt>
      <trkpt lat="45.7518" lon="4.82022">
        <ele>230</ele>
        <time>2015-04-10T12:13:19Z</time>
      </trkpt>
      <trkpt lat="45.75169" lon="4.82027">
        <ele>229</ele>
        <time>2015-04-10T12:13:23Z</time>
      </trkpt>
      <trkpt lat="45.75164" lon="4.8203">
        <ele>229</ele>
        <time>2015-04-10T12:13:25Z</time>
      </trkpt>
      <trkpt lat="45.75157" lon="4.82036">
        <ele>228</ele>
        <time>2015-04-10T12:13:28Z</time>
      </trkpt>
      <trkpt lat="45.75153" lon="4.8204">
        <ele>228</ele>
        <time>2015-04-10T12:13:30Z</time>
      </trkpt>
      <trkpt lat="45.75148" lon="4.82044">
        <ele>228</ele>
        <time>2015-04-10T12:13:32Z</time>
      </trkpt>
      <trkpt lat="45.75117" lon="4.82098">
        <ele>225</ele>
        <time>2015-04-10T12:13:51Z</time>
      </trkpt>
      <trkpt lat="45.75115" lon="4.82115">
        <ele>223</ele>
        <time>2015-04-10T12:14:01Z</time>
      </trkpt>
      <trkpt lat="45.75068" lon="4.82285">
        <ele>213</ele>
        <time>2015-04-10T12:14:52Z</time>
      </trkpt>
      <trkpt lat="45.75027" lon="4.82196">
        <ele>204</ele>
        <time>2015-04-10T12:15:52Z</time>
      </trkpt>
      <trkpt lat="45.74997" lon="4.82132">
        <ele>202</ele>
        <time>2015-04-10T12:16:12Z</time>
      </trkpt>
      <trkpt lat="45.74994" lon="4.82127">
        <ele>202</ele>
        <time>2015-04-10T12:16:14Z</time>
      </trkpt>
      <trkpt lat="45.74977" lon="4.82103">
        <ele>201</ele>
        <time>2015-04-10T12:16:23Z</time>
      </trkpt>
      <trkpt lat="45.74955" lon="4.8207">
        <ele>201</ele>
        <time>2015-04-10T12:16:34Z</time>
      </trkpt>
      <trkpt lat="45.74951" lon="4.82063">
        <ele>201</ele>
        <time>2015-04-10T12:16:36Z</time>
      </trkpt>
      <trkpt lat="45.74923" lon="4.82035">
        <ele>199</ele>
        <time>2015-04-10T12:16:51Z</time>
      </trkpt>
      <trkpt lat="45.7489" lon="4.81997">
        <ele>198</ele>
        <time>2015-04-10T12:17:12Z</time>
      </trkpt>
      <trkpt lat="45.74848" lon="4.8196">
        <ele>196</ele>
        <time>2015-04-10T12:17:34Z</time>
      </trkpt>
      <trkpt lat="45.74844" lon="4.81953">
        <ele>194</ele>
        <time>2015-04-10T12:17:38Z</time>
      </trkpt>
      <trkpt lat="45.74839" lon="4.81949">
        <ele>189</ele>
        <time>2015-04-10T12:17:41Z</time>
      </trkpt>
    </trkseg>
  </trk>
</gpx>